<?xml version="1.0" encoding="UTF-8" standalone="no" ?>
<gpx xmlns="http://www.topografix.com/GPX/1/1" xmlns:xsi="http://www.w3.org/2001/XMLSchema-instance" xsi:schemaLocation="http://www.topografix.com/GPX/1/1 http://www.topografix.com/GPX/1/1/gpx.xsd" version="1.1" creator="VisuGPX - https://www.visugpx.com">
  <metadata>
    <name>LES BARRAGES D'AIX</name>
    <desc><![CDATA[départ devant le chateau du tholonet, puis direction le barrage de ZOLA PUIS CELUI DE BIMONT]]></desc>
  </metadata>
  <trk>
    <name><![CDATA[Le Tholonet Lac de Bimont]]></name>
    <trkseg>
      <trkpt lat="43.52173" lon="5.50897">
        <ele>205.38</ele>
        <time>2009-10-06T07:35:35Z</time>
      </trkpt>
      <trkpt lat="43.52176" lon="5.50921">
        <ele>186.63</ele>
        <time>2009-10-06T07:36:23Z</time>
      </trkpt>
      <trkpt lat="43.52179" lon="5.50914">
        <ele>194.32</ele>
        <time>2009-10-06T07:37:56Z</time>
      </trkpt>
      <trkpt lat="43.52177" lon="5.50911">
        <ele>188.08</ele>
        <time>2009-10-06T07:38:36Z</time>
      </trkpt>
      <trkpt lat="43.52188" lon="5.50917">
        <ele>182.79</ele>
        <time>2009-10-06T07:38:52Z</time>
      </trkpt>
      <trkpt lat="43.52193" lon="5.50917">
        <ele>182.79</ele>
        <time>2009-10-06T07:39:14Z</time>
      </trkpt>
      <trkpt lat="43.52199" lon="5.50919">
        <ele>182.31</ele>
        <time>2009-10-06T07:39:50Z</time>
      </trkpt>
      <trkpt lat="43.52196" lon="5.50919">
        <ele>182.31</ele>
        <time>2009-10-06T07:39:56Z</time>
      </trkpt>
      <trkpt lat="43.52185" lon="5.50917">
        <ele>180.87</ele>
        <time>2009-10-06T07:40:14Z</time>
      </trkpt>
      <trkpt lat="43.52182" lon="5.50918">
        <ele>172.69</ele>
        <time>2009-10-06T07:40:41Z</time>
      </trkpt>
      <trkpt lat="43.52192" lon="5.50916">
        <ele>180.38</ele>
        <time>2009-10-06T07:40:55Z</time>
      </trkpt>
      <trkpt lat="43.52196" lon="5.50928">
        <ele>178.94</ele>
        <time>2009-10-06T07:41:51Z</time>
      </trkpt>
      <trkpt lat="43.52198" lon="5.50926">
        <ele>182.31</ele>
        <time>2009-10-06T07:42:20Z</time>
      </trkpt>
      <trkpt lat="43.52199" lon="5.50909">
        <ele>189.04</ele>
        <time>2009-10-06T07:42:51Z</time>
      </trkpt>
      <trkpt lat="43.522" lon="5.509">
        <ele>198.17</ele>
        <time>2009-10-06T07:43:14Z</time>
      </trkpt>
      <trkpt lat="43.52198" lon="5.50907">
        <ele>189.52</ele>
        <time>2009-10-06T07:43:55Z</time>
      </trkpt>
      <trkpt lat="43.52199" lon="5.50906">
        <ele>190.96</ele>
        <time>2009-10-06T07:44:10Z</time>
      </trkpt>
      <trkpt lat="43.52206" lon="5.50908">
        <ele>191.92</ele>
        <time>2009-10-06T07:44:23Z</time>
      </trkpt>
      <trkpt lat="43.52213" lon="5.50901">
        <ele>189.52</ele>
        <time>2009-10-06T07:44:32Z</time>
      </trkpt>
      <trkpt lat="43.52219" lon="5.5089">
        <ele>187.11</ele>
        <time>2009-10-06T07:44:43Z</time>
      </trkpt>
      <trkpt lat="43.52218" lon="5.50887">
        <ele>183.27</ele>
        <time>2009-10-06T07:44:46Z</time>
      </trkpt>
      <trkpt lat="43.52225" lon="5.50862">
        <ele>177.5</ele>
        <time>2009-10-06T07:45:03Z</time>
      </trkpt>
      <trkpt lat="43.52232" lon="5.50833">
        <ele>177.98</ele>
        <time>2009-10-06T07:45:19Z</time>
      </trkpt>
      <trkpt lat="43.52238" lon="5.50823">
        <ele>179.42</ele>
        <time>2009-10-06T07:45:27Z</time>
      </trkpt>
      <trkpt lat="43.52229" lon="5.50794">
        <ele>179.9</ele>
        <time>2009-10-06T07:45:45Z</time>
      </trkpt>
      <trkpt lat="43.52218" lon="5.50757">
        <ele>182.31</ele>
        <time>2009-10-06T07:46:04Z</time>
      </trkpt>
      <trkpt lat="43.52208" lon="5.50722">
        <ele>181.83</ele>
        <time>2009-10-06T07:46:25Z</time>
      </trkpt>
      <trkpt lat="43.52204" lon="5.50682">
        <ele>182.79</ele>
        <time>2009-10-06T07:46:47Z</time>
      </trkpt>
      <trkpt lat="43.52205" lon="5.50639">
        <ele>184.23</ele>
        <time>2009-10-06T07:47:10Z</time>
      </trkpt>
      <trkpt lat="43.52205" lon="5.50634">
        <ele>184.71</ele>
        <time>2009-10-06T07:47:13Z</time>
      </trkpt>
      <trkpt lat="43.52213" lon="5.50612">
        <ele>183.27</ele>
        <time>2009-10-06T07:47:27Z</time>
      </trkpt>
      <trkpt lat="43.52219" lon="5.50605">
        <ele>185.67</ele>
        <time>2009-10-06T07:47:43Z</time>
      </trkpt>
      <trkpt lat="43.52224" lon="5.50605">
        <ele>186.63</ele>
        <time>2009-10-06T07:47:54Z</time>
      </trkpt>
      <trkpt lat="43.52242" lon="5.50605">
        <ele>187.11</ele>
        <time>2009-10-06T07:48:11Z</time>
      </trkpt>
      <trkpt lat="43.52262" lon="5.50611">
        <ele>187.59</ele>
        <time>2009-10-06T07:48:28Z</time>
      </trkpt>
      <trkpt lat="43.52284" lon="5.50624">
        <ele>189.52</ele>
        <time>2009-10-06T07:48:48Z</time>
      </trkpt>
      <trkpt lat="43.5231" lon="5.50641">
        <ele>190.48</ele>
        <time>2009-10-06T07:49:11Z</time>
      </trkpt>
      <trkpt lat="43.52327" lon="5.50654">
        <ele>190.48</ele>
        <time>2009-10-06T07:49:26Z</time>
      </trkpt>
      <trkpt lat="43.52346" lon="5.50663">
        <ele>194.8</ele>
        <time>2009-10-06T07:49:43Z</time>
      </trkpt>
      <trkpt lat="43.52354" lon="5.50669">
        <ele>196.25</ele>
        <time>2009-10-06T07:49:51Z</time>
      </trkpt>
      <trkpt lat="43.52362" lon="5.50679">
        <ele>192.4</ele>
        <time>2009-10-06T07:50:06Z</time>
      </trkpt>
      <trkpt lat="43.52366" lon="5.50679">
        <ele>190.96</ele>
        <time>2009-10-06T07:50:17Z</time>
      </trkpt>
      <trkpt lat="43.52373" lon="5.50672">
        <ele>195.77</ele>
        <time>2009-10-06T07:50:33Z</time>
      </trkpt>
      <trkpt lat="43.52379" lon="5.50659">
        <ele>197.69</ele>
        <time>2009-10-06T07:50:51Z</time>
      </trkpt>
      <trkpt lat="43.52386" lon="5.50648">
        <ele>201.05</ele>
        <time>2009-10-06T07:51:08Z</time>
      </trkpt>
      <trkpt lat="43.52389" lon="5.50644">
        <ele>204.42</ele>
        <time>2009-10-06T07:51:22Z</time>
      </trkpt>
      <trkpt lat="43.52394" lon="5.50638">
        <ele>208.26</ele>
        <time>2009-10-06T07:51:57Z</time>
      </trkpt>
      <trkpt lat="43.52399" lon="5.5063">
        <ele>206.82</ele>
        <time>2009-10-06T07:52:14Z</time>
      </trkpt>
      <trkpt lat="43.52402" lon="5.5062">
        <ele>206.82</ele>
        <time>2009-10-06T07:52:31Z</time>
      </trkpt>
      <trkpt lat="43.52406" lon="5.50611">
        <ele>206.82</ele>
        <time>2009-10-06T07:52:45Z</time>
      </trkpt>
      <trkpt lat="43.52409" lon="5.50606">
        <ele>209.22</ele>
        <time>2009-10-06T07:53:01Z</time>
      </trkpt>
      <trkpt lat="43.52413" lon="5.506">
        <ele>214.51</ele>
        <time>2009-10-06T07:53:18Z</time>
      </trkpt>
      <trkpt lat="43.52418" lon="5.50591">
        <ele>214.03</ele>
        <time>2009-10-06T07:53:34Z</time>
      </trkpt>
      <trkpt lat="43.52423" lon="5.50584">
        <ele>215.95</ele>
        <time>2009-10-06T07:53:49Z</time>
      </trkpt>
      <trkpt lat="43.52429" lon="5.50577">
        <ele>220.28</ele>
        <time>2009-10-06T07:54:02Z</time>
      </trkpt>
      <trkpt lat="43.52431" lon="5.50564">
        <ele>218.36</ele>
        <time>2009-10-06T07:54:17Z</time>
      </trkpt>
      <trkpt lat="43.52434" lon="5.5055">
        <ele>222.2</ele>
        <time>2009-10-06T07:54:33Z</time>
      </trkpt>
      <trkpt lat="43.52441" lon="5.50548">
        <ele>224.12</ele>
        <time>2009-10-06T07:54:48Z</time>
      </trkpt>
      <trkpt lat="43.52448" lon="5.50538">
        <ele>224.12</ele>
        <time>2009-10-06T07:55:06Z</time>
      </trkpt>
      <trkpt lat="43.52455" lon="5.50533">
        <ele>226.53</ele>
        <time>2009-10-06T07:55:23Z</time>
      </trkpt>
      <trkpt lat="43.52461" lon="5.50532">
        <ele>229.89</ele>
        <time>2009-10-06T07:55:38Z</time>
      </trkpt>
      <trkpt lat="43.52466" lon="5.50538">
        <ele>228.93</ele>
        <time>2009-10-06T07:55:54Z</time>
      </trkpt>
      <trkpt lat="43.5247" lon="5.50544">
        <ele>231.33</ele>
        <time>2009-10-06T07:56:09Z</time>
      </trkpt>
      <trkpt lat="43.52473" lon="5.50548">
        <ele>235.18</ele>
        <time>2009-10-06T07:56:25Z</time>
      </trkpt>
      <trkpt lat="43.5248" lon="5.50551">
        <ele>237.58</ele>
        <time>2009-10-06T07:56:41Z</time>
      </trkpt>
      <trkpt lat="43.5249" lon="5.5055">
        <ele>239.02</ele>
        <time>2009-10-06T07:56:58Z</time>
      </trkpt>
      <trkpt lat="43.52499" lon="5.50547">
        <ele>238.54</ele>
        <time>2009-10-06T07:57:15Z</time>
      </trkpt>
      <trkpt lat="43.52507" lon="5.50548">
        <ele>237.58</ele>
        <time>2009-10-06T07:57:30Z</time>
      </trkpt>
      <trkpt lat="43.5252" lon="5.50549">
        <ele>238.54</ele>
        <time>2009-10-06T07:57:46Z</time>
      </trkpt>
      <trkpt lat="43.52531" lon="5.50554">
        <ele>240.47</ele>
        <time>2009-10-06T07:58:02Z</time>
      </trkpt>
      <trkpt lat="43.52541" lon="5.50555">
        <ele>241.43</ele>
        <time>2009-10-06T07:58:17Z</time>
      </trkpt>
      <trkpt lat="43.5255" lon="5.50556">
        <ele>244.31</ele>
        <time>2009-10-06T07:58:36Z</time>
      </trkpt>
      <trkpt lat="43.52556" lon="5.50557">
        <ele>247.68</ele>
        <time>2009-10-06T07:58:52Z</time>
      </trkpt>
      <trkpt lat="43.52559" lon="5.50562">
        <ele>247.2</ele>
        <time>2009-10-06T07:59:05Z</time>
      </trkpt>
      <trkpt lat="43.52566" lon="5.50565">
        <ele>250.56</ele>
        <time>2009-10-06T07:59:19Z</time>
      </trkpt>
      <trkpt lat="43.52579" lon="5.50574">
        <ele>254.89</ele>
        <time>2009-10-06T07:59:37Z</time>
      </trkpt>
      <trkpt lat="43.52582" lon="5.50578">
        <ele>256.33</ele>
        <time>2009-10-06T07:59:51Z</time>
      </trkpt>
      <trkpt lat="43.52587" lon="5.50584">
        <ele>258.73</ele>
        <time>2009-10-06T08:00:08Z</time>
      </trkpt>
      <trkpt lat="43.52593" lon="5.50591">
        <ele>261.62</ele>
        <time>2009-10-06T08:00:23Z</time>
      </trkpt>
      <trkpt lat="43.52598" lon="5.50597">
        <ele>264.02</ele>
        <time>2009-10-06T08:00:38Z</time>
      </trkpt>
      <trkpt lat="43.52601" lon="5.50608">
        <ele>265.94</ele>
        <time>2009-10-06T08:00:56Z</time>
      </trkpt>
      <trkpt lat="43.526" lon="5.50623">
        <ele>265.94</ele>
        <time>2009-10-06T08:01:15Z</time>
      </trkpt>
      <trkpt lat="43.52596" lon="5.50635">
        <ele>268.83</ele>
        <time>2009-10-06T08:01:32Z</time>
      </trkpt>
      <trkpt lat="43.52594" lon="5.50646">
        <ele>270.27</ele>
        <time>2009-10-06T08:01:49Z</time>
      </trkpt>
      <trkpt lat="43.52594" lon="5.50649">
        <ele>270.75</ele>
        <time>2009-10-06T08:02:07Z</time>
      </trkpt>
      <trkpt lat="43.52595" lon="5.50656">
        <ele>272.67</ele>
        <time>2009-10-06T08:02:23Z</time>
      </trkpt>
      <trkpt lat="43.52595" lon="5.50656">
        <ele>274.11</ele>
        <time>2009-10-06T08:02:55Z</time>
      </trkpt>
      <trkpt lat="43.52597" lon="5.50657">
        <ele>273.15</ele>
        <time>2009-10-06T08:03:33Z</time>
      </trkpt>
      <trkpt lat="43.52607" lon="5.50654">
        <ele>275.56</ele>
        <time>2009-10-06T08:04:19Z</time>
      </trkpt>
      <trkpt lat="43.52616" lon="5.50662">
        <ele>278.44</ele>
        <time>2009-10-06T08:04:35Z</time>
      </trkpt>
      <trkpt lat="43.52625" lon="5.50671">
        <ele>280.36</ele>
        <time>2009-10-06T08:04:52Z</time>
      </trkpt>
      <trkpt lat="43.52632" lon="5.50678">
        <ele>283.25</ele>
        <time>2009-10-06T08:05:09Z</time>
      </trkpt>
      <trkpt lat="43.52642" lon="5.50686">
        <ele>283.73</ele>
        <time>2009-10-06T08:05:26Z</time>
      </trkpt>
      <trkpt lat="43.5265" lon="5.50694">
        <ele>286.61</ele>
        <time>2009-10-06T08:05:44Z</time>
      </trkpt>
      <trkpt lat="43.5266" lon="5.507">
        <ele>287.57</ele>
        <time>2009-10-06T08:06:01Z</time>
      </trkpt>
      <trkpt lat="43.52665" lon="5.50701">
        <ele>290.46</ele>
        <time>2009-10-06T08:06:18Z</time>
      </trkpt>
      <trkpt lat="43.52665" lon="5.50704">
        <ele>288.05</ele>
        <time>2009-10-06T08:06:42Z</time>
      </trkpt>
      <trkpt lat="43.52672" lon="5.50703">
        <ele>288.05</ele>
        <time>2009-10-06T08:06:57Z</time>
      </trkpt>
      <trkpt lat="43.52682" lon="5.50697">
        <ele>291.9</ele>
        <time>2009-10-06T08:07:16Z</time>
      </trkpt>
      <trkpt lat="43.52691" lon="5.50695">
        <ele>290.94</ele>
        <time>2009-10-06T08:07:31Z</time>
      </trkpt>
      <trkpt lat="43.52705" lon="5.50688">
        <ele>292.86</ele>
        <time>2009-10-06T08:07:50Z</time>
      </trkpt>
      <trkpt lat="43.52721" lon="5.50684">
        <ele>292.38</ele>
        <time>2009-10-06T08:08:08Z</time>
      </trkpt>
      <trkpt lat="43.52737" lon="5.50678">
        <ele>296.7</ele>
        <time>2009-10-06T08:08:27Z</time>
      </trkpt>
      <trkpt lat="43.52755" lon="5.50676">
        <ele>299.11</ele>
        <time>2009-10-06T08:08:46Z</time>
      </trkpt>
      <trkpt lat="43.52769" lon="5.50674">
        <ele>300.55</ele>
        <time>2009-10-06T08:08:59Z</time>
      </trkpt>
      <trkpt lat="43.52789" lon="5.50671">
        <ele>298.63</ele>
        <time>2009-10-06T08:09:19Z</time>
      </trkpt>
      <trkpt lat="43.52801" lon="5.50671">
        <ele>298.15</ele>
        <time>2009-10-06T08:09:31Z</time>
      </trkpt>
      <trkpt lat="43.52817" lon="5.50683">
        <ele>300.55</ele>
        <time>2009-10-06T08:09:49Z</time>
      </trkpt>
      <trkpt lat="43.52831" lon="5.5068">
        <ele>297.18</ele>
        <time>2009-10-06T08:10:07Z</time>
      </trkpt>
      <trkpt lat="43.52844" lon="5.50678">
        <ele>296.7</ele>
        <time>2009-10-06T08:10:27Z</time>
      </trkpt>
      <trkpt lat="43.52857" lon="5.50669">
        <ele>297.67</ele>
        <time>2009-10-06T08:10:46Z</time>
      </trkpt>
      <trkpt lat="43.52864" lon="5.50665">
        <ele>296.7</ele>
        <time>2009-10-06T08:10:55Z</time>
      </trkpt>
      <trkpt lat="43.52883" lon="5.50673">
        <ele>291.42</ele>
        <time>2009-10-06T08:11:14Z</time>
      </trkpt>
      <trkpt lat="43.52897" lon="5.50688">
        <ele>289.49</ele>
        <time>2009-10-06T08:11:31Z</time>
      </trkpt>
      <trkpt lat="43.52912" lon="5.50709">
        <ele>285.65</ele>
        <time>2009-10-06T08:11:51Z</time>
      </trkpt>
      <trkpt lat="43.52927" lon="5.50718">
        <ele>287.57</ele>
        <time>2009-10-06T08:12:10Z</time>
      </trkpt>
      <trkpt lat="43.52937" lon="5.5072">
        <ele>290.46</ele>
        <time>2009-10-06T08:12:24Z</time>
      </trkpt>
      <trkpt lat="43.52944" lon="5.5072">
        <ele>286.13</ele>
        <time>2009-10-06T08:12:40Z</time>
      </trkpt>
      <trkpt lat="43.52958" lon="5.50715">
        <ele>284.21</ele>
        <time>2009-10-06T08:13:00Z</time>
      </trkpt>
      <trkpt lat="43.52964" lon="5.50714">
        <ele>282.77</ele>
        <time>2009-10-06T08:13:07Z</time>
      </trkpt>
      <trkpt lat="43.52981" lon="5.5072">
        <ele>280.36</ele>
        <time>2009-10-06T08:13:27Z</time>
      </trkpt>
      <trkpt lat="43.52995" lon="5.50728">
        <ele>279.88</ele>
        <time>2009-10-06T08:13:46Z</time>
      </trkpt>
      <trkpt lat="43.53014" lon="5.50731">
        <ele>278.92</ele>
        <time>2009-10-06T08:14:08Z</time>
      </trkpt>
      <trkpt lat="43.53032" lon="5.50737">
        <ele>270.27</ele>
        <time>2009-10-06T08:14:29Z</time>
      </trkpt>
      <trkpt lat="43.53048" lon="5.50743">
        <ele>264.5</ele>
        <time>2009-10-06T08:14:49Z</time>
      </trkpt>
      <trkpt lat="43.53051" lon="5.50746">
        <ele>263.06</ele>
        <time>2009-10-06T08:14:53Z</time>
      </trkpt>
      <trkpt lat="43.53063" lon="5.50762">
        <ele>258.73</ele>
        <time>2009-10-06T08:15:12Z</time>
      </trkpt>
      <trkpt lat="43.53073" lon="5.50775">
        <ele>256.81</ele>
        <time>2009-10-06T08:15:29Z</time>
      </trkpt>
      <trkpt lat="43.53085" lon="5.50791">
        <ele>254.89</ele>
        <time>2009-10-06T08:15:48Z</time>
      </trkpt>
      <trkpt lat="43.53096" lon="5.50805">
        <ele>252</ele>
        <time>2009-10-06T08:16:08Z</time>
      </trkpt>
      <trkpt lat="43.53112" lon="5.5082">
        <ele>246.72</ele>
        <time>2009-10-06T08:16:34Z</time>
      </trkpt>
      <trkpt lat="43.53119" lon="5.50826">
        <ele>248.16</ele>
        <time>2009-10-06T08:16:47Z</time>
      </trkpt>
      <trkpt lat="43.5312" lon="5.50827">
        <ele>248.16</ele>
        <time>2009-10-06T08:16:48Z</time>
      </trkpt>
      <trkpt lat="43.53135" lon="5.5084">
        <ele>244.31</ele>
        <time>2009-10-06T08:17:05Z</time>
      </trkpt>
      <trkpt lat="43.5315" lon="5.50851">
        <ele>243.35</ele>
        <time>2009-10-06T08:17:24Z</time>
      </trkpt>
      <trkpt lat="43.53165" lon="5.50859">
        <ele>240.47</ele>
        <time>2009-10-06T08:17:45Z</time>
      </trkpt>
      <trkpt lat="43.5318" lon="5.50863">
        <ele>238.54</ele>
        <time>2009-10-06T08:18:05Z</time>
      </trkpt>
      <trkpt lat="43.53196" lon="5.50863">
        <ele>233.74</ele>
        <time>2009-10-06T08:18:27Z</time>
      </trkpt>
      <trkpt lat="43.53208" lon="5.50862">
        <ele>231.33</ele>
        <time>2009-10-06T08:18:48Z</time>
      </trkpt>
      <trkpt lat="43.53221" lon="5.50861">
        <ele>233.26</ele>
        <time>2009-10-06T08:19:08Z</time>
      </trkpt>
      <trkpt lat="43.53235" lon="5.50861">
        <ele>230.85</ele>
        <time>2009-10-06T08:19:25Z</time>
      </trkpt>
      <trkpt lat="43.53247" lon="5.50858">
        <ele>229.41</ele>
        <time>2009-10-06T08:19:42Z</time>
      </trkpt>
      <trkpt lat="43.53262" lon="5.50857">
        <ele>225.09</ele>
        <time>2009-10-06T08:19:58Z</time>
      </trkpt>
      <trkpt lat="43.53278" lon="5.50865">
        <ele>221.72</ele>
        <time>2009-10-06T08:20:18Z</time>
      </trkpt>
      <trkpt lat="43.53278" lon="5.50864">
        <ele>220.28</ele>
        <time>2009-10-06T08:20:59Z</time>
      </trkpt>
      <trkpt lat="43.5328" lon="5.50867">
        <ele>223.16</ele>
        <time>2009-10-06T08:21:29Z</time>
      </trkpt>
      <trkpt lat="43.5328" lon="5.50866">
        <ele>221.72</ele>
        <time>2009-10-06T08:22:35Z</time>
      </trkpt>
      <trkpt lat="43.53281" lon="5.50866">
        <ele>222.68</ele>
        <time>2009-10-06T08:23:01Z</time>
      </trkpt>
      <trkpt lat="43.53284" lon="5.50874">
        <ele>224.12</ele>
        <time>2009-10-06T08:23:18Z</time>
      </trkpt>
      <trkpt lat="43.5329" lon="5.50889">
        <ele>230.37</ele>
        <time>2009-10-06T08:23:33Z</time>
      </trkpt>
      <trkpt lat="43.53299" lon="5.50911">
        <ele>228.45</ele>
        <time>2009-10-06T08:23:52Z</time>
      </trkpt>
      <trkpt lat="43.53306" lon="5.50931">
        <ele>235.18</ele>
        <time>2009-10-06T08:24:12Z</time>
      </trkpt>
      <trkpt lat="43.53307" lon="5.50949">
        <ele>239.99</ele>
        <time>2009-10-06T08:24:28Z</time>
      </trkpt>
      <trkpt lat="43.53314" lon="5.50975">
        <ele>234.22</ele>
        <time>2009-10-06T08:24:47Z</time>
      </trkpt>
      <trkpt lat="43.53319" lon="5.50994">
        <ele>230.85</ele>
        <time>2009-10-06T08:25:03Z</time>
      </trkpt>
      <trkpt lat="43.53321" lon="5.51015">
        <ele>233.26</ele>
        <time>2009-10-06T08:25:21Z</time>
      </trkpt>
      <trkpt lat="43.53325" lon="5.51027">
        <ele>235.18</ele>
        <time>2009-10-06T08:25:33Z</time>
      </trkpt>
      <trkpt lat="43.53327" lon="5.51051">
        <ele>240.95</ele>
        <time>2009-10-06T08:25:52Z</time>
      </trkpt>
      <trkpt lat="43.53318" lon="5.51073">
        <ele>239.99</ele>
        <time>2009-10-06T08:26:12Z</time>
      </trkpt>
      <trkpt lat="43.53309" lon="5.51087">
        <ele>239.02</ele>
        <time>2009-10-06T08:26:29Z</time>
      </trkpt>
      <trkpt lat="43.53307" lon="5.51106">
        <ele>243.35</ele>
        <time>2009-10-06T08:26:46Z</time>
      </trkpt>
      <trkpt lat="43.5331" lon="5.51129">
        <ele>244.31</ele>
        <time>2009-10-06T08:27:05Z</time>
      </trkpt>
      <trkpt lat="43.5331" lon="5.51132">
        <ele>245.27</ele>
        <time>2009-10-06T08:27:08Z</time>
      </trkpt>
      <trkpt lat="43.53314" lon="5.51156">
        <ele>244.31</ele>
        <time>2009-10-06T08:27:27Z</time>
      </trkpt>
      <trkpt lat="43.53307" lon="5.51174">
        <ele>247.68</ele>
        <time>2009-10-06T08:27:46Z</time>
      </trkpt>
      <trkpt lat="43.53293" lon="5.51182">
        <ele>244.79</ele>
        <time>2009-10-06T08:28:04Z</time>
      </trkpt>
      <trkpt lat="43.5329" lon="5.51182">
        <ele>245.27</ele>
        <time>2009-10-06T08:28:22Z</time>
      </trkpt>
      <trkpt lat="43.53289" lon="5.5118">
        <ele>248.16</ele>
        <time>2009-10-06T08:28:45Z</time>
      </trkpt>
      <trkpt lat="43.53289" lon="5.51179">
        <ele>247.2</ele>
        <time>2009-10-06T08:29:06Z</time>
      </trkpt>
      <trkpt lat="43.53281" lon="5.51172">
        <ele>247.68</ele>
        <time>2009-10-06T08:29:28Z</time>
      </trkpt>
      <trkpt lat="43.53266" lon="5.51159">
        <ele>242.87</ele>
        <time>2009-10-06T08:29:48Z</time>
      </trkpt>
      <trkpt lat="43.53256" lon="5.5116">
        <ele>241.91</ele>
        <time>2009-10-06T08:30:04Z</time>
      </trkpt>
      <trkpt lat="43.53256" lon="5.51158">
        <ele>240.95</ele>
        <time>2009-10-06T08:31:41Z</time>
      </trkpt>
      <trkpt lat="43.53257" lon="5.51157">
        <ele>240.95</ele>
        <time>2009-10-06T08:32:21Z</time>
      </trkpt>
      <trkpt lat="43.53259" lon="5.51155">
        <ele>244.79</ele>
        <time>2009-10-06T08:33:11Z</time>
      </trkpt>
      <trkpt lat="43.53259" lon="5.51154">
        <ele>244.31</ele>
        <time>2009-10-06T08:33:30Z</time>
      </trkpt>
      <trkpt lat="43.53256" lon="5.51154">
        <ele>244.31</ele>
        <time>2009-10-06T08:33:53Z</time>
      </trkpt>
      <trkpt lat="43.53261" lon="5.51158">
        <ele>244.79</ele>
        <time>2009-10-06T08:34:25Z</time>
      </trkpt>
      <trkpt lat="43.53268" lon="5.51162">
        <ele>245.75</ele>
        <time>2009-10-06T08:34:36Z</time>
      </trkpt>
      <trkpt lat="43.53277" lon="5.51169">
        <ele>245.75</ele>
        <time>2009-10-06T08:34:50Z</time>
      </trkpt>
      <trkpt lat="43.5328" lon="5.51178">
        <ele>246.72</ele>
        <time>2009-10-06T08:35:10Z</time>
      </trkpt>
      <trkpt lat="43.53278" lon="5.51179">
        <ele>247.68</ele>
        <time>2009-10-06T08:35:24Z</time>
      </trkpt>
      <trkpt lat="43.53276" lon="5.51181">
        <ele>247.68</ele>
        <time>2009-10-06T08:35:41Z</time>
      </trkpt>
      <trkpt lat="43.53274" lon="5.51187">
        <ele>249.6</ele>
        <time>2009-10-06T08:35:54Z</time>
      </trkpt>
      <trkpt lat="43.53273" lon="5.512">
        <ele>252.48</ele>
        <time>2009-10-06T08:36:12Z</time>
      </trkpt>
      <trkpt lat="43.5327" lon="5.51212">
        <ele>253.93</ele>
        <time>2009-10-06T08:36:27Z</time>
      </trkpt>
      <trkpt lat="43.53274" lon="5.51221">
        <ele>256.81</ele>
        <time>2009-10-06T08:36:42Z</time>
      </trkpt>
      <trkpt lat="43.53277" lon="5.51239">
        <ele>260.17</ele>
        <time>2009-10-06T08:37:03Z</time>
      </trkpt>
      <trkpt lat="43.53277" lon="5.51257">
        <ele>262.1</ele>
        <time>2009-10-06T08:37:22Z</time>
      </trkpt>
      <trkpt lat="43.5328" lon="5.51266">
        <ele>264.02</ele>
        <time>2009-10-06T08:37:31Z</time>
      </trkpt>
      <trkpt lat="43.5329" lon="5.51293">
        <ele>267.38</ele>
        <time>2009-10-06T08:37:53Z</time>
      </trkpt>
      <trkpt lat="43.53294" lon="5.51299">
        <ele>267.86</ele>
        <time>2009-10-06T08:37:59Z</time>
      </trkpt>
      <trkpt lat="43.53301" lon="5.513">
        <ele>269.31</ele>
        <time>2009-10-06T08:38:06Z</time>
      </trkpt>
      <trkpt lat="43.53306" lon="5.513">
        <ele>269.79</ele>
        <time>2009-10-06T08:38:10Z</time>
      </trkpt>
      <trkpt lat="43.53327" lon="5.51301">
        <ele>273.63</ele>
        <time>2009-10-06T08:38:29Z</time>
      </trkpt>
      <trkpt lat="43.53344" lon="5.51302">
        <ele>273.15</ele>
        <time>2009-10-06T08:38:46Z</time>
      </trkpt>
      <trkpt lat="43.5336" lon="5.51294">
        <ele>277</ele>
        <time>2009-10-06T08:39:04Z</time>
      </trkpt>
      <trkpt lat="43.5338" lon="5.51291">
        <ele>277</ele>
        <time>2009-10-06T08:39:23Z</time>
      </trkpt>
      <trkpt lat="43.53396" lon="5.51279">
        <ele>276.52</ele>
        <time>2009-10-06T08:39:41Z</time>
      </trkpt>
      <trkpt lat="43.53402" lon="5.51263">
        <ele>277.96</ele>
        <time>2009-10-06T08:39:58Z</time>
      </trkpt>
      <trkpt lat="43.53411" lon="5.51246">
        <ele>278.44</ele>
        <time>2009-10-06T08:40:15Z</time>
      </trkpt>
      <trkpt lat="43.53425" lon="5.51233">
        <ele>280.36</ele>
        <time>2009-10-06T08:40:32Z</time>
      </trkpt>
      <trkpt lat="43.53432" lon="5.51238">
        <ele>279.88</ele>
        <time>2009-10-06T08:40:41Z</time>
      </trkpt>
      <trkpt lat="43.53448" lon="5.5126">
        <ele>277.48</ele>
        <time>2009-10-06T08:41:02Z</time>
      </trkpt>
      <trkpt lat="43.53462" lon="5.51278">
        <ele>277.96</ele>
        <time>2009-10-06T08:41:22Z</time>
      </trkpt>
      <trkpt lat="43.53477" lon="5.51286">
        <ele>278.44</ele>
        <time>2009-10-06T08:41:42Z</time>
      </trkpt>
      <trkpt lat="43.53493" lon="5.51285">
        <ele>280.84</ele>
        <time>2009-10-06T08:42:01Z</time>
      </trkpt>
      <trkpt lat="43.535" lon="5.51276">
        <ele>285.17</ele>
        <time>2009-10-06T08:42:18Z</time>
      </trkpt>
      <trkpt lat="43.53509" lon="5.51258">
        <ele>287.09</ele>
        <time>2009-10-06T08:42:37Z</time>
      </trkpt>
      <trkpt lat="43.53512" lon="5.51243">
        <ele>290.46</ele>
        <time>2009-10-06T08:42:53Z</time>
      </trkpt>
      <trkpt lat="43.53509" lon="5.51226">
        <ele>294.3</ele>
        <time>2009-10-06T08:43:13Z</time>
      </trkpt>
      <trkpt lat="43.53504" lon="5.51211">
        <ele>292.86</ele>
        <time>2009-10-06T08:43:30Z</time>
      </trkpt>
      <trkpt lat="43.53511" lon="5.51196">
        <ele>293.82</ele>
        <time>2009-10-06T08:43:47Z</time>
      </trkpt>
      <trkpt lat="43.53521" lon="5.51182">
        <ele>297.18</ele>
        <time>2009-10-06T08:44:06Z</time>
      </trkpt>
      <trkpt lat="43.53527" lon="5.51163">
        <ele>297.67</ele>
        <time>2009-10-06T08:44:27Z</time>
      </trkpt>
      <trkpt lat="43.53535" lon="5.51148">
        <ele>300.55</ele>
        <time>2009-10-06T08:44:46Z</time>
      </trkpt>
      <trkpt lat="43.53545" lon="5.5113">
        <ele>302.95</ele>
        <time>2009-10-06T08:45:07Z</time>
      </trkpt>
      <trkpt lat="43.53553" lon="5.51119">
        <ele>304.39</ele>
        <time>2009-10-06T08:45:25Z</time>
      </trkpt>
      <trkpt lat="43.53559" lon="5.51107">
        <ele>302.95</ele>
        <time>2009-10-06T08:45:43Z</time>
      </trkpt>
      <trkpt lat="43.53566" lon="5.51097">
        <ele>301.99</ele>
        <time>2009-10-06T08:46:01Z</time>
      </trkpt>
      <trkpt lat="43.53577" lon="5.51087">
        <ele>303.91</ele>
        <time>2009-10-06T08:46:21Z</time>
      </trkpt>
      <trkpt lat="43.53582" lon="5.51079">
        <ele>306.8</ele>
        <time>2009-10-06T08:46:38Z</time>
      </trkpt>
      <trkpt lat="43.53592" lon="5.51069">
        <ele>306.8</ele>
        <time>2009-10-06T08:46:56Z</time>
      </trkpt>
      <trkpt lat="43.53604" lon="5.51065">
        <ele>309.2</ele>
        <time>2009-10-06T08:47:15Z</time>
      </trkpt>
      <trkpt lat="43.53613" lon="5.51064">
        <ele>312.57</ele>
        <time>2009-10-06T08:47:32Z</time>
      </trkpt>
      <trkpt lat="43.53624" lon="5.51059">
        <ele>314.97</ele>
        <time>2009-10-06T08:47:50Z</time>
      </trkpt>
      <trkpt lat="43.53634" lon="5.51055">
        <ele>317.37</ele>
        <time>2009-10-06T08:48:10Z</time>
      </trkpt>
      <trkpt lat="43.53642" lon="5.51056">
        <ele>319.78</ele>
        <time>2009-10-06T08:48:27Z</time>
      </trkpt>
      <trkpt lat="43.5365" lon="5.5106">
        <ele>323.62</ele>
        <time>2009-10-06T08:48:43Z</time>
      </trkpt>
      <trkpt lat="43.5366" lon="5.51068">
        <ele>327.47</ele>
        <time>2009-10-06T08:49:01Z</time>
      </trkpt>
      <trkpt lat="43.5367" lon="5.51073">
        <ele>328.91</ele>
        <time>2009-10-06T08:49:18Z</time>
      </trkpt>
      <trkpt lat="43.5368" lon="5.51079">
        <ele>330.35</ele>
        <time>2009-10-06T08:49:38Z</time>
      </trkpt>
      <trkpt lat="43.5369" lon="5.51084">
        <ele>333.23</ele>
        <time>2009-10-06T08:49:54Z</time>
      </trkpt>
      <trkpt lat="43.53699" lon="5.51092">
        <ele>337.08</ele>
        <time>2009-10-06T08:50:11Z</time>
      </trkpt>
      <trkpt lat="43.53708" lon="5.51107">
        <ele>340.92</ele>
        <time>2009-10-06T08:50:28Z</time>
      </trkpt>
      <trkpt lat="43.53714" lon="5.51116">
        <ele>346.21</ele>
        <time>2009-10-06T08:50:43Z</time>
      </trkpt>
      <trkpt lat="43.53723" lon="5.51124">
        <ele>352.94</ele>
        <time>2009-10-06T08:50:58Z</time>
      </trkpt>
      <trkpt lat="43.53733" lon="5.5114">
        <ele>352.46</ele>
        <time>2009-10-06T08:51:14Z</time>
      </trkpt>
      <trkpt lat="43.53738" lon="5.51161">
        <ele>347.17</ele>
        <time>2009-10-06T08:51:29Z</time>
      </trkpt>
      <trkpt lat="43.5373" lon="5.51175">
        <ele>343.33</ele>
        <time>2009-10-06T08:51:45Z</time>
      </trkpt>
      <trkpt lat="43.53717" lon="5.51183">
        <ele>341.41</ele>
        <time>2009-10-06T08:52:03Z</time>
      </trkpt>
      <trkpt lat="43.53704" lon="5.51194">
        <ele>337.56</ele>
        <time>2009-10-06T08:52:20Z</time>
      </trkpt>
      <trkpt lat="43.537" lon="5.512">
        <ele>338.52</ele>
        <time>2009-10-06T08:52:28Z</time>
      </trkpt>
      <trkpt lat="43.53686" lon="5.51223">
        <ele>338.52</ele>
        <time>2009-10-06T08:52:49Z</time>
      </trkpt>
      <trkpt lat="43.53679" lon="5.51248">
        <ele>339.96</ele>
        <time>2009-10-06T08:53:08Z</time>
      </trkpt>
      <trkpt lat="43.53678" lon="5.51254">
        <ele>340.44</ele>
        <time>2009-10-06T08:53:13Z</time>
      </trkpt>
      <trkpt lat="43.53677" lon="5.51258">
        <ele>340.44</ele>
        <time>2009-10-06T08:53:16Z</time>
      </trkpt>
      <trkpt lat="43.53674" lon="5.51285">
        <ele>340.44</ele>
        <time>2009-10-06T08:53:37Z</time>
      </trkpt>
      <trkpt lat="43.53674" lon="5.51286">
        <ele>340.44</ele>
        <time>2009-10-06T08:53:38Z</time>
      </trkpt>
      <trkpt lat="43.53674" lon="5.51311">
        <ele>342.85</ele>
        <time>2009-10-06T08:53:58Z</time>
      </trkpt>
      <trkpt lat="43.53679" lon="5.51336">
        <ele>344.77</ele>
        <time>2009-10-06T08:54:18Z</time>
      </trkpt>
      <trkpt lat="43.53688" lon="5.51348">
        <ele>343.81</ele>
        <time>2009-10-06T08:54:36Z</time>
      </trkpt>
      <trkpt lat="43.53699" lon="5.51358">
        <ele>348.13</ele>
        <time>2009-10-06T08:54:52Z</time>
      </trkpt>
      <trkpt lat="43.53705" lon="5.51365">
        <ele>351.98</ele>
        <time>2009-10-06T08:55:07Z</time>
      </trkpt>
      <trkpt lat="43.53724" lon="5.51379">
        <ele>350.54</ele>
        <time>2009-10-06T08:55:25Z</time>
      </trkpt>
      <trkpt lat="43.53735" lon="5.51399">
        <ele>351.98</ele>
        <time>2009-10-06T08:55:41Z</time>
      </trkpt>
      <trkpt lat="43.53737" lon="5.51415">
        <ele>351.98</ele>
        <time>2009-10-06T08:55:58Z</time>
      </trkpt>
      <trkpt lat="43.53725" lon="5.51427">
        <ele>351.02</ele>
        <time>2009-10-06T08:56:13Z</time>
      </trkpt>
      <trkpt lat="43.53719" lon="5.51443">
        <ele>350.06</ele>
        <time>2009-10-06T08:56:27Z</time>
      </trkpt>
      <trkpt lat="43.53715" lon="5.51463">
        <ele>346.21</ele>
        <time>2009-10-06T08:56:45Z</time>
      </trkpt>
      <trkpt lat="43.5372" lon="5.51484">
        <ele>345.73</ele>
        <time>2009-10-06T08:57:04Z</time>
      </trkpt>
      <trkpt lat="43.53727" lon="5.51506">
        <ele>350.06</ele>
        <time>2009-10-06T08:57:21Z</time>
      </trkpt>
      <trkpt lat="43.5373" lon="5.51524">
        <ele>357.75</ele>
        <time>2009-10-06T08:57:37Z</time>
      </trkpt>
      <trkpt lat="43.53739" lon="5.51545">
        <ele>361.59</ele>
        <time>2009-10-06T08:57:57Z</time>
      </trkpt>
      <trkpt lat="43.53746" lon="5.51561">
        <ele>369.76</ele>
        <time>2009-10-06T08:58:13Z</time>
      </trkpt>
      <trkpt lat="43.53756" lon="5.51572">
        <ele>371.21</ele>
        <time>2009-10-06T08:58:26Z</time>
      </trkpt>
      <trkpt lat="43.53767" lon="5.51599">
        <ele>370.73</ele>
        <time>2009-10-06T08:58:48Z</time>
      </trkpt>
      <trkpt lat="43.53793" lon="5.51636">
        <ele>352.46</ele>
        <time>2009-10-06T08:59:12Z</time>
      </trkpt>
      <trkpt lat="43.53805" lon="5.51664">
        <ele>346.69</ele>
        <time>2009-10-06T08:59:33Z</time>
      </trkpt>
      <trkpt lat="43.5383" lon="5.51674">
        <ele>347.17</ele>
        <time>2009-10-06T08:59:59Z</time>
      </trkpt>
      <trkpt lat="43.5385" lon="5.51685">
        <ele>346.69</ele>
        <time>2009-10-06T09:00:20Z</time>
      </trkpt>
      <trkpt lat="43.53869" lon="5.517">
        <ele>350.54</ele>
        <time>2009-10-06T09:00:43Z</time>
      </trkpt>
      <trkpt lat="43.53891" lon="5.51708">
        <ele>351.02</ele>
        <time>2009-10-06T09:01:06Z</time>
      </trkpt>
      <trkpt lat="43.53904" lon="5.51717">
        <ele>355.83</ele>
        <time>2009-10-06T09:01:25Z</time>
      </trkpt>
      <trkpt lat="43.53923" lon="5.51735">
        <ele>349.58</ele>
        <time>2009-10-06T09:01:44Z</time>
      </trkpt>
      <trkpt lat="43.53936" lon="5.51755">
        <ele>347.65</ele>
        <time>2009-10-06T09:02:01Z</time>
      </trkpt>
      <trkpt lat="43.53937" lon="5.51758">
        <ele>348.62</ele>
        <time>2009-10-06T09:02:04Z</time>
      </trkpt>
      <trkpt lat="43.5395" lon="5.51791">
        <ele>347.65</ele>
        <time>2009-10-06T09:02:27Z</time>
      </trkpt>
      <trkpt lat="43.53958" lon="5.51818">
        <ele>348.13</ele>
        <time>2009-10-06T09:02:47Z</time>
      </trkpt>
      <trkpt lat="43.53968" lon="5.51828">
        <ele>348.62</ele>
        <time>2009-10-06T09:03:05Z</time>
      </trkpt>
      <trkpt lat="43.53986" lon="5.51842">
        <ele>349.1</ele>
        <time>2009-10-06T09:03:25Z</time>
      </trkpt>
      <trkpt lat="43.53999" lon="5.51846">
        <ele>350.54</ele>
        <time>2009-10-06T09:03:44Z</time>
      </trkpt>
      <trkpt lat="43.54013" lon="5.51847">
        <ele>351.02</ele>
        <time>2009-10-06T09:04:02Z</time>
      </trkpt>
      <trkpt lat="43.54018" lon="5.51847">
        <ele>348.13</ele>
        <time>2009-10-06T09:04:06Z</time>
      </trkpt>
      <trkpt lat="43.5404" lon="5.51866">
        <ele>343.33</ele>
        <time>2009-10-06T09:04:25Z</time>
      </trkpt>
      <trkpt lat="43.54046" lon="5.51886">
        <ele>346.21</ele>
        <time>2009-10-06T09:04:46Z</time>
      </trkpt>
      <trkpt lat="43.54042" lon="5.51901">
        <ele>349.58</ele>
        <time>2009-10-06T09:05:01Z</time>
      </trkpt>
      <trkpt lat="43.54035" lon="5.51924">
        <ele>349.1</ele>
        <time>2009-10-06T09:05:20Z</time>
      </trkpt>
      <trkpt lat="43.54025" lon="5.51939">
        <ele>349.58</ele>
        <time>2009-10-06T09:05:36Z</time>
      </trkpt>
      <trkpt lat="43.54014" lon="5.51951">
        <ele>349.1</ele>
        <time>2009-10-06T09:05:52Z</time>
      </trkpt>
      <trkpt lat="43.54009" lon="5.51955">
        <ele>349.1</ele>
        <time>2009-10-06T09:06:06Z</time>
      </trkpt>
      <trkpt lat="43.54005" lon="5.51959">
        <ele>348.13</ele>
        <time>2009-10-06T09:06:21Z</time>
      </trkpt>
      <trkpt lat="43.53997" lon="5.51962">
        <ele>350.06</ele>
        <time>2009-10-06T09:06:37Z</time>
      </trkpt>
      <trkpt lat="43.53984" lon="5.51964">
        <ele>354.86</ele>
        <time>2009-10-06T09:06:52Z</time>
      </trkpt>
      <trkpt lat="43.53971" lon="5.51971">
        <ele>359.19</ele>
        <time>2009-10-06T09:07:08Z</time>
      </trkpt>
      <trkpt lat="43.53959" lon="5.51984">
        <ele>361.59</ele>
        <time>2009-10-06T09:07:24Z</time>
      </trkpt>
      <trkpt lat="43.53947" lon="5.51992">
        <ele>360.63</ele>
        <time>2009-10-06T09:07:36Z</time>
      </trkpt>
      <trkpt lat="43.53939" lon="5.51997">
        <ele>361.11</ele>
        <time>2009-10-06T09:07:43Z</time>
      </trkpt>
      <trkpt lat="43.5393" lon="5.52017">
        <ele>360.63</ele>
        <time>2009-10-06T09:08:00Z</time>
      </trkpt>
      <trkpt lat="43.5393" lon="5.52033">
        <ele>366.4</ele>
        <time>2009-10-06T09:08:19Z</time>
      </trkpt>
      <trkpt lat="43.53943" lon="5.5205">
        <ele>364.96</ele>
        <time>2009-10-06T09:08:37Z</time>
      </trkpt>
      <trkpt lat="43.53951" lon="5.52068">
        <ele>362.55</ele>
        <time>2009-10-06T09:08:55Z</time>
      </trkpt>
      <trkpt lat="43.53962" lon="5.52081">
        <ele>364</ele>
        <time>2009-10-06T09:09:12Z</time>
      </trkpt>
      <trkpt lat="43.5397" lon="5.52095">
        <ele>361.59</ele>
        <time>2009-10-06T09:09:31Z</time>
      </trkpt>
      <trkpt lat="43.5397" lon="5.52112">
        <ele>362.07</ele>
        <time>2009-10-06T09:09:44Z</time>
      </trkpt>
      <trkpt lat="43.53962" lon="5.52128">
        <ele>362.07</ele>
        <time>2009-10-06T09:10:00Z</time>
      </trkpt>
      <trkpt lat="43.53947" lon="5.52142">
        <ele>360.15</ele>
        <time>2009-10-06T09:10:17Z</time>
      </trkpt>
      <trkpt lat="43.53935" lon="5.52157">
        <ele>356.31</ele>
        <time>2009-10-06T09:10:35Z</time>
      </trkpt>
      <trkpt lat="43.53918" lon="5.52163">
        <ele>356.31</ele>
        <time>2009-10-06T09:10:50Z</time>
      </trkpt>
      <trkpt lat="43.53902" lon="5.5217">
        <ele>355.34</ele>
        <time>2009-10-06T09:11:07Z</time>
      </trkpt>
      <trkpt lat="43.53884" lon="5.52177">
        <ele>353.42</ele>
        <time>2009-10-06T09:11:27Z</time>
      </trkpt>
      <trkpt lat="43.53876" lon="5.52175">
        <ele>351.98</ele>
        <time>2009-10-06T09:11:37Z</time>
      </trkpt>
      <trkpt lat="43.5386" lon="5.52164">
        <ele>351.5</ele>
        <time>2009-10-06T09:11:56Z</time>
      </trkpt>
      <trkpt lat="43.53845" lon="5.52154">
        <ele>350.06</ele>
        <time>2009-10-06T09:12:15Z</time>
      </trkpt>
      <trkpt lat="43.53828" lon="5.52153">
        <ele>349.58</ele>
        <time>2009-10-06T09:12:35Z</time>
      </trkpt>
      <trkpt lat="43.53811" lon="5.52154">
        <ele>348.13</ele>
        <time>2009-10-06T09:12:55Z</time>
      </trkpt>
      <trkpt lat="43.53806" lon="5.52151">
        <ele>346.21</ele>
        <time>2009-10-06T09:13:10Z</time>
      </trkpt>
      <trkpt lat="43.53808" lon="5.52156">
        <ele>346.69</ele>
        <time>2009-10-06T09:13:25Z</time>
      </trkpt>
      <trkpt lat="43.53804" lon="5.52169">
        <ele>348.62</ele>
        <time>2009-10-06T09:13:42Z</time>
      </trkpt>
      <trkpt lat="43.53801" lon="5.52171">
        <ele>347.65</ele>
        <time>2009-10-06T09:14:08Z</time>
      </trkpt>
      <trkpt lat="43.538" lon="5.52184">
        <ele>347.65</ele>
        <time>2009-10-06T09:14:26Z</time>
      </trkpt>
      <trkpt lat="43.538" lon="5.52191">
        <ele>347.17</ele>
        <time>2009-10-06T09:14:45Z</time>
      </trkpt>
      <trkpt lat="43.53798" lon="5.52192">
        <ele>346.21</ele>
        <time>2009-10-06T09:15:02Z</time>
      </trkpt>
      <trkpt lat="43.53801" lon="5.52196">
        <ele>346.21</ele>
        <time>2009-10-06T09:15:19Z</time>
      </trkpt>
      <trkpt lat="43.53805" lon="5.52204">
        <ele>345.73</ele>
        <time>2009-10-06T09:15:39Z</time>
      </trkpt>
      <trkpt lat="43.53812" lon="5.5222">
        <ele>347.65</ele>
        <time>2009-10-06T09:15:58Z</time>
      </trkpt>
      <trkpt lat="43.53823" lon="5.52229">
        <ele>349.58</ele>
        <time>2009-10-06T09:16:19Z</time>
      </trkpt>
      <trkpt lat="43.53834" lon="5.5224">
        <ele>353.9</ele>
        <time>2009-10-06T09:16:40Z</time>
      </trkpt>
      <trkpt lat="43.53844" lon="5.52252">
        <ele>357.75</ele>
        <time>2009-10-06T09:17:01Z</time>
      </trkpt>
      <trkpt lat="43.53856" lon="5.52271">
        <ele>359.67</ele>
        <time>2009-10-06T09:17:21Z</time>
      </trkpt>
      <trkpt lat="43.53863" lon="5.52285">
        <ele>361.59</ele>
        <time>2009-10-06T09:17:37Z</time>
      </trkpt>
      <trkpt lat="43.53867" lon="5.52294">
        <ele>362.07</ele>
        <time>2009-10-06T09:17:44Z</time>
      </trkpt>
      <trkpt lat="43.53875" lon="5.52322">
        <ele>355.83</ele>
        <time>2009-10-06T09:18:03Z</time>
      </trkpt>
      <trkpt lat="43.53883" lon="5.52348">
        <ele>355.83</ele>
        <time>2009-10-06T09:18:26Z</time>
      </trkpt>
      <trkpt lat="43.53887" lon="5.5237">
        <ele>357.75</ele>
        <time>2009-10-06T09:18:46Z</time>
      </trkpt>
      <trkpt lat="43.5389" lon="5.52391">
        <ele>354.38</ele>
        <time>2009-10-06T09:19:02Z</time>
      </trkpt>
      <trkpt lat="43.53894" lon="5.52419">
        <ele>354.86</ele>
        <time>2009-10-06T09:19:23Z</time>
      </trkpt>
      <trkpt lat="43.53899" lon="5.52443">
        <ele>356.31</ele>
        <time>2009-10-06T09:19:43Z</time>
      </trkpt>
      <trkpt lat="43.53905" lon="5.52462">
        <ele>358.71</ele>
        <time>2009-10-06T09:20:00Z</time>
      </trkpt>
      <trkpt lat="43.53923" lon="5.52483">
        <ele>358.23</ele>
        <time>2009-10-06T09:20:24Z</time>
      </trkpt>
      <trkpt lat="43.53927" lon="5.52484">
        <ele>357.75</ele>
        <time>2009-10-06T09:20:28Z</time>
      </trkpt>
      <trkpt lat="43.53936" lon="5.52485">
        <ele>357.27</ele>
        <time>2009-10-06T09:20:37Z</time>
      </trkpt>
      <trkpt lat="43.53949" lon="5.52506">
        <ele>359.67</ele>
        <time>2009-10-06T09:21:00Z</time>
      </trkpt>
      <trkpt lat="43.53952" lon="5.52519">
        <ele>354.38</ele>
        <time>2009-10-06T09:21:16Z</time>
      </trkpt>
      <trkpt lat="43.53953" lon="5.52528">
        <ele>353.9</ele>
        <time>2009-10-06T09:21:24Z</time>
      </trkpt>
      <trkpt lat="43.5395" lon="5.52555">
        <ele>351.98</ele>
        <time>2009-10-06T09:21:45Z</time>
      </trkpt>
      <trkpt lat="43.53951" lon="5.52559">
        <ele>351.5</ele>
        <time>2009-10-06T09:21:48Z</time>
      </trkpt>
      <trkpt lat="43.53958" lon="5.52588">
        <ele>351.02</ele>
        <time>2009-10-06T09:22:10Z</time>
      </trkpt>
      <trkpt lat="43.53968" lon="5.52615">
        <ele>350.54</ele>
        <time>2009-10-06T09:22:32Z</time>
      </trkpt>
      <trkpt lat="43.53967" lon="5.52648">
        <ele>351.02</ele>
        <time>2009-10-06T09:22:56Z</time>
      </trkpt>
      <trkpt lat="43.53972" lon="5.5267">
        <ele>352.94</ele>
        <time>2009-10-06T09:23:13Z</time>
      </trkpt>
      <trkpt lat="43.53973" lon="5.52677">
        <ele>353.9</ele>
        <time>2009-10-06T09:23:18Z</time>
      </trkpt>
      <trkpt lat="43.53984" lon="5.52712">
        <ele>353.9</ele>
        <time>2009-10-06T09:23:44Z</time>
      </trkpt>
      <trkpt lat="43.53987" lon="5.52723">
        <ele>354.38</ele>
        <time>2009-10-06T09:23:53Z</time>
      </trkpt>
      <trkpt lat="43.53988" lon="5.52751">
        <ele>356.31</ele>
        <time>2009-10-06T09:24:15Z</time>
      </trkpt>
      <trkpt lat="43.53987" lon="5.52778">
        <ele>357.75</ele>
        <time>2009-10-06T09:24:36Z</time>
      </trkpt>
      <trkpt lat="43.53991" lon="5.5281">
        <ele>356.31</ele>
        <time>2009-10-06T09:24:58Z</time>
      </trkpt>
      <trkpt lat="43.54012" lon="5.52824">
        <ele>359.19</ele>
        <time>2009-10-06T09:25:20Z</time>
      </trkpt>
      <trkpt lat="43.54028" lon="5.52841">
        <ele>359.67</ele>
        <time>2009-10-06T09:25:39Z</time>
      </trkpt>
      <trkpt lat="43.54041" lon="5.5286">
        <ele>361.59</ele>
        <time>2009-10-06T09:25:58Z</time>
      </trkpt>
      <trkpt lat="43.54059" lon="5.52877">
        <ele>365.44</ele>
        <time>2009-10-06T09:26:20Z</time>
      </trkpt>
      <trkpt lat="43.54073" lon="5.52907">
        <ele>364.96</ele>
        <time>2009-10-06T09:26:44Z</time>
      </trkpt>
      <trkpt lat="43.54089" lon="5.52939">
        <ele>366.4</ele>
        <time>2009-10-06T09:27:11Z</time>
      </trkpt>
      <trkpt lat="43.54098" lon="5.52953">
        <ele>368.32</ele>
        <time>2009-10-06T09:27:24Z</time>
      </trkpt>
      <trkpt lat="43.54115" lon="5.52969">
        <ele>369.28</ele>
        <time>2009-10-06T09:27:45Z</time>
      </trkpt>
      <trkpt lat="43.54131" lon="5.52992">
        <ele>364.96</ele>
        <time>2009-10-06T09:28:05Z</time>
      </trkpt>
      <trkpt lat="43.54126" lon="5.53015">
        <ele>362.07</ele>
        <time>2009-10-06T09:28:22Z</time>
      </trkpt>
      <trkpt lat="43.54118" lon="5.53038">
        <ele>360.15</ele>
        <time>2009-10-06T09:28:41Z</time>
      </trkpt>
      <trkpt lat="43.54105" lon="5.53054">
        <ele>362.55</ele>
        <time>2009-10-06T09:29:00Z</time>
      </trkpt>
      <trkpt lat="43.54099" lon="5.53062">
        <ele>363.04</ele>
        <time>2009-10-06T09:29:15Z</time>
      </trkpt>
      <trkpt lat="43.54098" lon="5.53059">
        <ele>360.63</ele>
        <time>2009-10-06T09:29:51Z</time>
      </trkpt>
      <trkpt lat="43.54097" lon="5.53074">
        <ele>361.59</ele>
        <time>2009-10-06T09:30:12Z</time>
      </trkpt>
      <trkpt lat="43.54097" lon="5.53091">
        <ele>362.07</ele>
        <time>2009-10-06T09:30:31Z</time>
      </trkpt>
      <trkpt lat="43.54097" lon="5.53118">
        <ele>362.55</ele>
        <time>2009-10-06T09:30:52Z</time>
      </trkpt>
      <trkpt lat="43.54099" lon="5.53132">
        <ele>362.07</ele>
        <time>2009-10-06T09:31:03Z</time>
      </trkpt>
      <trkpt lat="43.54106" lon="5.53163">
        <ele>365.44</ele>
        <time>2009-10-06T09:31:28Z</time>
      </trkpt>
      <trkpt lat="43.5412" lon="5.53188">
        <ele>365.92</ele>
        <time>2009-10-06T09:31:50Z</time>
      </trkpt>
      <trkpt lat="43.54132" lon="5.53213">
        <ele>370.24</ele>
        <time>2009-10-06T09:32:13Z</time>
      </trkpt>
      <trkpt lat="43.54143" lon="5.53231">
        <ele>373.13</ele>
        <time>2009-10-06T09:32:31Z</time>
      </trkpt>
      <trkpt lat="43.54153" lon="5.53259">
        <ele>365.44</ele>
        <time>2009-10-06T09:32:50Z</time>
      </trkpt>
      <trkpt lat="43.54161" lon="5.5329">
        <ele>364.96</ele>
        <time>2009-10-06T09:33:13Z</time>
      </trkpt>
      <trkpt lat="43.54166" lon="5.53325">
        <ele>364.96</ele>
        <time>2009-10-06T09:33:38Z</time>
      </trkpt>
      <trkpt lat="43.54165" lon="5.53353">
        <ele>365.44</ele>
        <time>2009-10-06T09:33:59Z</time>
      </trkpt>
      <trkpt lat="43.54165" lon="5.53372">
        <ele>363.04</ele>
        <time>2009-10-06T09:34:15Z</time>
      </trkpt>
      <trkpt lat="43.54161" lon="5.53397">
        <ele>361.11</ele>
        <time>2009-10-06T09:34:33Z</time>
      </trkpt>
      <trkpt lat="43.54149" lon="5.53425">
        <ele>362.07</ele>
        <time>2009-10-06T09:34:54Z</time>
      </trkpt>
      <trkpt lat="43.54139" lon="5.53458">
        <ele>361.59</ele>
        <time>2009-10-06T09:35:18Z</time>
      </trkpt>
      <trkpt lat="43.5414" lon="5.53483">
        <ele>361.11</ele>
        <time>2009-10-06T09:35:38Z</time>
      </trkpt>
      <trkpt lat="43.54144" lon="5.53501">
        <ele>358.71</ele>
        <time>2009-10-06T09:35:56Z</time>
      </trkpt>
      <trkpt lat="43.54148" lon="5.53529">
        <ele>358.71</ele>
        <time>2009-10-06T09:36:18Z</time>
      </trkpt>
      <trkpt lat="43.54151" lon="5.53555">
        <ele>355.34</ele>
        <time>2009-10-06T09:36:38Z</time>
      </trkpt>
      <trkpt lat="43.54145" lon="5.53578">
        <ele>351.98</ele>
        <time>2009-10-06T09:36:58Z</time>
      </trkpt>
      <trkpt lat="43.54134" lon="5.53593">
        <ele>351.98</ele>
        <time>2009-10-06T09:37:17Z</time>
      </trkpt>
      <trkpt lat="43.54122" lon="5.53605">
        <ele>351.98</ele>
        <time>2009-10-06T09:37:37Z</time>
      </trkpt>
      <trkpt lat="43.54119" lon="5.5361">
        <ele>352.94</ele>
        <time>2009-10-06T09:37:49Z</time>
      </trkpt>
      <trkpt lat="43.54113" lon="5.53615">
        <ele>352.46</ele>
        <time>2009-10-06T09:38:09Z</time>
      </trkpt>
      <trkpt lat="43.54105" lon="5.53625">
        <ele>352.94</ele>
        <time>2009-10-06T09:38:28Z</time>
      </trkpt>
      <trkpt lat="43.54102" lon="5.53629">
        <ele>352.94</ele>
        <time>2009-10-06T09:38:45Z</time>
      </trkpt>
      <trkpt lat="43.54102" lon="5.53633">
        <ele>352.94</ele>
        <time>2009-10-06T09:39:01Z</time>
      </trkpt>
      <trkpt lat="43.54102" lon="5.53633">
        <ele>353.9</ele>
        <time>2009-10-06T09:39:31Z</time>
      </trkpt>
      <trkpt lat="43.54099" lon="5.53635">
        <ele>351.98</ele>
        <time>2009-10-06T09:39:52Z</time>
      </trkpt>
      <trkpt lat="43.54089" lon="5.53638">
        <ele>351.5</ele>
        <time>2009-10-06T09:40:12Z</time>
      </trkpt>
      <trkpt lat="43.54072" lon="5.53648">
        <ele>351.98</ele>
        <time>2009-10-06T09:40:32Z</time>
      </trkpt>
      <trkpt lat="43.54059" lon="5.53652">
        <ele>353.42</ele>
        <time>2009-10-06T09:40:45Z</time>
      </trkpt>
      <trkpt lat="43.54043" lon="5.53657">
        <ele>353.9</ele>
        <time>2009-10-06T09:41:04Z</time>
      </trkpt>
      <trkpt lat="43.54038" lon="5.53658">
        <ele>353.42</ele>
        <time>2009-10-06T09:41:22Z</time>
      </trkpt>
      <trkpt lat="43.54016" lon="5.53655">
        <ele>351.98</ele>
        <time>2009-10-06T09:41:46Z</time>
      </trkpt>
      <trkpt lat="43.5399" lon="5.53646">
        <ele>352.46</ele>
        <time>2009-10-06T09:42:12Z</time>
      </trkpt>
      <trkpt lat="43.53971" lon="5.53634">
        <ele>352.94</ele>
        <time>2009-10-06T09:42:33Z</time>
      </trkpt>
      <trkpt lat="43.53966" lon="5.53627">
        <ele>352.46</ele>
        <time>2009-10-06T09:42:39Z</time>
      </trkpt>
      <trkpt lat="43.53959" lon="5.53619">
        <ele>352.46</ele>
        <time>2009-10-06T09:42:48Z</time>
      </trkpt>
      <trkpt lat="43.53951" lon="5.53619">
        <ele>352.94</ele>
        <time>2009-10-06T09:43:09Z</time>
      </trkpt>
      <trkpt lat="43.5395" lon="5.53617">
        <ele>352.46</ele>
        <time>2009-10-06T09:43:13Z</time>
      </trkpt>
      <trkpt lat="43.53938" lon="5.53606">
        <ele>351.5</ele>
        <time>2009-10-06T09:43:34Z</time>
      </trkpt>
      <trkpt lat="43.53935" lon="5.53598">
        <ele>351.5</ele>
        <time>2009-10-06T09:43:53Z</time>
      </trkpt>
      <trkpt lat="43.53925" lon="5.53583">
        <ele>353.9</ele>
        <time>2009-10-06T09:44:14Z</time>
      </trkpt>
      <trkpt lat="43.53918" lon="5.53568">
        <ele>355.83</ele>
        <time>2009-10-06T09:44:33Z</time>
      </trkpt>
      <trkpt lat="43.53902" lon="5.53562">
        <ele>354.86</ele>
        <time>2009-10-06T09:44:52Z</time>
      </trkpt>
      <trkpt lat="43.53895" lon="5.53561">
        <ele>354.86</ele>
        <time>2009-10-06T09:45:08Z</time>
      </trkpt>
      <trkpt lat="43.53888" lon="5.53567">
        <ele>359.67</ele>
        <time>2009-10-06T09:45:24Z</time>
      </trkpt>
      <trkpt lat="43.5388" lon="5.53574">
        <ele>359.19</ele>
        <time>2009-10-06T09:45:42Z</time>
      </trkpt>
      <trkpt lat="43.53871" lon="5.5358">
        <ele>358.71</ele>
        <time>2009-10-06T09:46:00Z</time>
      </trkpt>
      <trkpt lat="43.5386" lon="5.53587">
        <ele>361.59</ele>
        <time>2009-10-06T09:46:19Z</time>
      </trkpt>
      <trkpt lat="43.53851" lon="5.53591">
        <ele>364.96</ele>
        <time>2009-10-06T09:46:36Z</time>
      </trkpt>
      <trkpt lat="43.53842" lon="5.53589">
        <ele>365.44</ele>
        <time>2009-10-06T09:46:53Z</time>
      </trkpt>
      <trkpt lat="43.53834" lon="5.53586">
        <ele>365.92</ele>
        <time>2009-10-06T09:47:13Z</time>
      </trkpt>
      <trkpt lat="43.53833" lon="5.53587">
        <ele>362.07</ele>
        <time>2009-10-06T09:47:37Z</time>
      </trkpt>
      <trkpt lat="43.5383" lon="5.53591">
        <ele>364.48</ele>
        <time>2009-10-06T09:48:15Z</time>
      </trkpt>
      <trkpt lat="43.53831" lon="5.53589">
        <ele>363.04</ele>
        <time>2009-10-06T09:49:05Z</time>
      </trkpt>
      <trkpt lat="43.5383" lon="5.53589">
        <ele>364.48</ele>
        <time>2009-10-06T09:49:21Z</time>
      </trkpt>
      <trkpt lat="43.5383" lon="5.53591">
        <ele>362.07</ele>
        <time>2009-10-06T09:49:37Z</time>
      </trkpt>
      <trkpt lat="43.53829" lon="5.53593">
        <ele>364</ele>
        <time>2009-10-06T09:50:28Z</time>
      </trkpt>
      <trkpt lat="43.53824" lon="5.53608">
        <ele>366.88</ele>
        <time>2009-10-06T09:50:45Z</time>
      </trkpt>
      <trkpt lat="43.53818" lon="5.5363">
        <ele>367.36</ele>
        <time>2009-10-06T09:51:07Z</time>
      </trkpt>
      <trkpt lat="43.53822" lon="5.53644">
        <ele>369.76</ele>
        <time>2009-10-06T09:51:22Z</time>
      </trkpt>
      <trkpt lat="43.5383" lon="5.5366">
        <ele>373.13</ele>
        <time>2009-10-06T09:51:39Z</time>
      </trkpt>
      <trkpt lat="43.53838" lon="5.53677">
        <ele>380.82</ele>
        <time>2009-10-06T09:51:57Z</time>
      </trkpt>
      <trkpt lat="43.53844" lon="5.537">
        <ele>384.66</ele>
        <time>2009-10-06T09:52:18Z</time>
      </trkpt>
      <trkpt lat="43.5385" lon="5.53724">
        <ele>381.78</ele>
        <time>2009-10-06T09:52:37Z</time>
      </trkpt>
      <trkpt lat="43.53855" lon="5.53748">
        <ele>375.05</ele>
        <time>2009-10-06T09:52:55Z</time>
      </trkpt>
      <trkpt lat="43.53853" lon="5.5376">
        <ele>375.05</ele>
        <time>2009-10-06T09:53:13Z</time>
      </trkpt>
      <trkpt lat="43.53846" lon="5.53772">
        <ele>376.97</ele>
        <time>2009-10-06T09:53:39Z</time>
      </trkpt>
      <trkpt lat="43.53844" lon="5.53775">
        <ele>371.69</ele>
        <time>2009-10-06T09:54:02Z</time>
      </trkpt>
      <trkpt lat="43.53844" lon="5.5378">
        <ele>370.24</ele>
        <time>2009-10-06T09:54:17Z</time>
      </trkpt>
      <trkpt lat="43.53851" lon="5.53776">
        <ele>375.53</ele>
        <time>2009-10-06T09:54:34Z</time>
      </trkpt>
      <trkpt lat="43.53851" lon="5.5377">
        <ele>366.88</ele>
        <time>2009-10-06T09:54:55Z</time>
      </trkpt>
      <trkpt lat="43.53848" lon="5.53759">
        <ele>371.21</ele>
        <time>2009-10-06T09:55:10Z</time>
      </trkpt>
      <trkpt lat="43.53848" lon="5.53761">
        <ele>375.53</ele>
        <time>2009-10-06T09:55:31Z</time>
      </trkpt>
      <trkpt lat="43.53846" lon="5.53768">
        <ele>377.45</ele>
        <time>2009-10-06T09:56:03Z</time>
      </trkpt>
      <trkpt lat="43.53843" lon="5.53774">
        <ele>372.65</ele>
        <time>2009-10-06T09:56:11Z</time>
      </trkpt>
      <trkpt lat="43.53831" lon="5.53787">
        <ele>365.44</ele>
        <time>2009-10-06T09:56:28Z</time>
      </trkpt>
      <trkpt lat="43.53822" lon="5.53802">
        <ele>366.4</ele>
        <time>2009-10-06T09:56:43Z</time>
      </trkpt>
      <trkpt lat="43.5381" lon="5.53807">
        <ele>370.73</ele>
        <time>2009-10-06T09:56:56Z</time>
      </trkpt>
      <trkpt lat="43.53807" lon="5.53809">
        <ele>372.17</ele>
        <time>2009-10-06T09:57:12Z</time>
      </trkpt>
      <trkpt lat="43.53807" lon="5.53807">
        <ele>372.65</ele>
        <time>2009-10-06T09:57:30Z</time>
      </trkpt>
      <trkpt lat="43.53806" lon="5.53808">
        <ele>376.97</ele>
        <time>2009-10-06T09:57:52Z</time>
      </trkpt>
      <trkpt lat="43.53806" lon="5.53808">
        <ele>376.49</ele>
        <time>2009-10-06T09:57:55Z</time>
      </trkpt>
      <trkpt lat="43.53826" lon="5.53782">
        <ele>372.17</ele>
        <time>2009-10-06T11:12:50Z</time>
      </trkpt>
      <trkpt lat="43.53826" lon="5.5378">
        <ele>369.28</ele>
        <time>2009-10-06T11:13:06Z</time>
      </trkpt>
      <trkpt lat="43.53823" lon="5.53789">
        <ele>366.4</ele>
        <time>2009-10-06T11:13:23Z</time>
      </trkpt>
      <trkpt lat="43.53808" lon="5.53803">
        <ele>362.07</ele>
        <time>2009-10-06T11:14:03Z</time>
      </trkpt>
      <trkpt lat="43.53811" lon="5.53807">
        <ele>377.94</ele>
        <time>2009-10-06T11:14:43Z</time>
      </trkpt>
      <trkpt lat="43.53806" lon="5.53809">
        <ele>378.42</ele>
        <time>2009-10-06T11:15:16Z</time>
      </trkpt>
      <trkpt lat="43.5381" lon="5.53809">
        <ele>380.34</ele>
        <time>2009-10-06T11:16:00Z</time>
      </trkpt>
      <trkpt lat="43.53807" lon="5.53808">
        <ele>379.38</ele>
        <time>2009-10-06T11:16:29Z</time>
      </trkpt>
      <trkpt lat="43.53807" lon="5.53806">
        <ele>375.05</ele>
        <time>2009-10-06T11:17:04Z</time>
      </trkpt>
      <trkpt lat="43.53811" lon="5.53806">
        <ele>371.69</ele>
        <time>2009-10-06T11:17:29Z</time>
      </trkpt>
      <trkpt lat="43.53808" lon="5.53812">
        <ele>378.42</ele>
        <time>2009-10-06T11:17:50Z</time>
      </trkpt>
      <trkpt lat="43.53808" lon="5.53812">
        <ele>378.42</ele>
        <time>2009-10-06T11:18:13Z</time>
      </trkpt>
      <trkpt lat="43.53807" lon="5.53808">
        <ele>372.17</ele>
        <time>2009-10-06T11:18:30Z</time>
      </trkpt>
      <trkpt lat="43.53805" lon="5.5381">
        <ele>373.13</ele>
        <time>2009-10-06T11:18:56Z</time>
      </trkpt>
      <trkpt lat="43.53804" lon="5.53817">
        <ele>373.61</ele>
        <time>2009-10-06T11:19:11Z</time>
      </trkpt>
      <trkpt lat="43.53797" lon="5.53831">
        <ele>375.53</ele>
        <time>2009-10-06T11:19:28Z</time>
      </trkpt>
      <trkpt lat="43.53794" lon="5.53843">
        <ele>374.57</ele>
        <time>2009-10-06T11:19:43Z</time>
      </trkpt>
      <trkpt lat="43.53786" lon="5.53862">
        <ele>374.57</ele>
        <time>2009-10-06T11:20:02Z</time>
      </trkpt>
      <trkpt lat="43.53779" lon="5.53882">
        <ele>371.69</ele>
        <time>2009-10-06T11:20:21Z</time>
      </trkpt>
      <trkpt lat="43.53766" lon="5.539">
        <ele>372.17</ele>
        <time>2009-10-06T11:20:37Z</time>
      </trkpt>
      <trkpt lat="43.53751" lon="5.53905">
        <ele>375.53</ele>
        <time>2009-10-06T11:20:55Z</time>
      </trkpt>
      <trkpt lat="43.53738" lon="5.53909">
        <ele>380.34</ele>
        <time>2009-10-06T11:21:12Z</time>
      </trkpt>
      <trkpt lat="43.53721" lon="5.53905">
        <ele>382.74</ele>
        <time>2009-10-06T11:21:31Z</time>
      </trkpt>
      <trkpt lat="43.53704" lon="5.53905">
        <ele>384.18</ele>
        <time>2009-10-06T11:21:50Z</time>
      </trkpt>
      <trkpt lat="43.53689" lon="5.53907">
        <ele>385.15</ele>
        <time>2009-10-06T11:22:07Z</time>
      </trkpt>
      <trkpt lat="43.53664" lon="5.53908">
        <ele>385.15</ele>
        <time>2009-10-06T11:22:31Z</time>
      </trkpt>
      <trkpt lat="43.53641" lon="5.53908">
        <ele>381.3</ele>
        <time>2009-10-06T11:22:49Z</time>
      </trkpt>
      <trkpt lat="43.53619" lon="5.53907">
        <ele>379.38</ele>
        <time>2009-10-06T11:23:09Z</time>
      </trkpt>
      <trkpt lat="43.53594" lon="5.53907">
        <ele>378.42</ele>
        <time>2009-10-06T11:23:31Z</time>
      </trkpt>
      <trkpt lat="43.53574" lon="5.53921">
        <ele>379.38</ele>
        <time>2009-10-06T11:23:52Z</time>
      </trkpt>
      <trkpt lat="43.53555" lon="5.53929">
        <ele>380.34</ele>
        <time>2009-10-06T11:24:11Z</time>
      </trkpt>
      <trkpt lat="43.53534" lon="5.53933">
        <ele>380.34</ele>
        <time>2009-10-06T11:24:30Z</time>
      </trkpt>
      <trkpt lat="43.53519" lon="5.53938">
        <ele>380.82</ele>
        <time>2009-10-06T11:24:46Z</time>
      </trkpt>
      <trkpt lat="43.53499" lon="5.53953">
        <ele>379.86</ele>
        <time>2009-10-06T11:25:07Z</time>
      </trkpt>
      <trkpt lat="43.53483" lon="5.53966">
        <ele>382.26</ele>
        <time>2009-10-06T11:25:26Z</time>
      </trkpt>
      <trkpt lat="43.5347" lon="5.53984">
        <ele>381.3</ele>
        <time>2009-10-06T11:25:44Z</time>
      </trkpt>
      <trkpt lat="43.53458" lon="5.54001">
        <ele>381.3</ele>
        <time>2009-10-06T11:25:59Z</time>
      </trkpt>
      <trkpt lat="43.53448" lon="5.54015">
        <ele>381.3</ele>
        <time>2009-10-06T11:26:13Z</time>
      </trkpt>
      <trkpt lat="43.53448" lon="5.54018">
        <ele>379.86</ele>
        <time>2009-10-06T11:26:16Z</time>
      </trkpt>
      <trkpt lat="43.53437" lon="5.5405">
        <ele>383.22</ele>
        <time>2009-10-06T11:26:39Z</time>
      </trkpt>
      <trkpt lat="43.53425" lon="5.54073">
        <ele>379.38</ele>
        <time>2009-10-06T11:26:59Z</time>
      </trkpt>
      <trkpt lat="43.53411" lon="5.54085">
        <ele>376.49</ele>
        <time>2009-10-06T11:27:16Z</time>
      </trkpt>
      <trkpt lat="43.53395" lon="5.54093">
        <ele>375.05</ele>
        <time>2009-10-06T11:27:33Z</time>
      </trkpt>
      <trkpt lat="43.5338" lon="5.54097">
        <ele>374.09</ele>
        <time>2009-10-06T11:27:51Z</time>
      </trkpt>
      <trkpt lat="43.53363" lon="5.54108">
        <ele>372.65</ele>
        <time>2009-10-06T11:28:10Z</time>
      </trkpt>
      <trkpt lat="43.53361" lon="5.5411">
        <ele>372.65</ele>
        <time>2009-10-06T11:28:13Z</time>
      </trkpt>
      <trkpt lat="43.53351" lon="5.54129">
        <ele>369.76</ele>
        <time>2009-10-06T11:28:31Z</time>
      </trkpt>
      <trkpt lat="43.5335" lon="5.54152">
        <ele>366.88</ele>
        <time>2009-10-06T11:28:52Z</time>
      </trkpt>
      <trkpt lat="43.53353" lon="5.5417">
        <ele>365.44</ele>
        <time>2009-10-06T11:29:09Z</time>
      </trkpt>
      <trkpt lat="43.53351" lon="5.54191">
        <ele>366.4</ele>
        <time>2009-10-06T11:29:26Z</time>
      </trkpt>
      <trkpt lat="43.53348" lon="5.54197">
        <ele>364.48</ele>
        <time>2009-10-06T11:29:31Z</time>
      </trkpt>
      <trkpt lat="43.53336" lon="5.54208">
        <ele>362.07</ele>
        <time>2009-10-06T11:29:47Z</time>
      </trkpt>
      <trkpt lat="43.53321" lon="5.54211">
        <ele>361.11</ele>
        <time>2009-10-06T11:30:04Z</time>
      </trkpt>
      <trkpt lat="43.53306" lon="5.54216">
        <ele>361.59</ele>
        <time>2009-10-06T11:30:22Z</time>
      </trkpt>
      <trkpt lat="43.53299" lon="5.54225">
        <ele>360.63</ele>
        <time>2009-10-06T11:30:40Z</time>
      </trkpt>
      <trkpt lat="43.53295" lon="5.54228">
        <ele>359.19</ele>
        <time>2009-10-06T11:30:58Z</time>
      </trkpt>
      <trkpt lat="43.53299" lon="5.54224">
        <ele>361.11</ele>
        <time>2009-10-06T11:31:53Z</time>
      </trkpt>
      <trkpt lat="43.53295" lon="5.54228">
        <ele>359.19</ele>
        <time>2009-10-06T11:32:29Z</time>
      </trkpt>
      <trkpt lat="43.53293" lon="5.5423">
        <ele>359.67</ele>
        <time>2009-10-06T11:32:43Z</time>
      </trkpt>
      <trkpt lat="43.53289" lon="5.54233">
        <ele>360.63</ele>
        <time>2009-10-06T11:32:57Z</time>
      </trkpt>
      <trkpt lat="43.53284" lon="5.54237">
        <ele>360.15</ele>
        <time>2009-10-06T11:33:11Z</time>
      </trkpt>
      <trkpt lat="43.53275" lon="5.54241">
        <ele>359.19</ele>
        <time>2009-10-06T11:33:27Z</time>
      </trkpt>
      <trkpt lat="43.53261" lon="5.54248">
        <ele>358.71</ele>
        <time>2009-10-06T11:33:46Z</time>
      </trkpt>
      <trkpt lat="43.53252" lon="5.54255">
        <ele>362.07</ele>
        <time>2009-10-06T11:34:03Z</time>
      </trkpt>
      <trkpt lat="43.53236" lon="5.54262">
        <ele>360.15</ele>
        <time>2009-10-06T11:34:23Z</time>
      </trkpt>
      <trkpt lat="43.53224" lon="5.54274">
        <ele>357.27</ele>
        <time>2009-10-06T11:34:40Z</time>
      </trkpt>
      <trkpt lat="43.53213" lon="5.54289">
        <ele>356.79</ele>
        <time>2009-10-06T11:34:56Z</time>
      </trkpt>
      <trkpt lat="43.53198" lon="5.54307">
        <ele>353.9</ele>
        <time>2009-10-06T11:35:15Z</time>
      </trkpt>
      <trkpt lat="43.53185" lon="5.54327">
        <ele>355.83</ele>
        <time>2009-10-06T11:35:36Z</time>
      </trkpt>
      <trkpt lat="43.53172" lon="5.54346">
        <ele>354.86</ele>
        <time>2009-10-06T11:35:53Z</time>
      </trkpt>
      <trkpt lat="43.53164" lon="5.54361">
        <ele>356.79</ele>
        <time>2009-10-06T11:36:05Z</time>
      </trkpt>
      <trkpt lat="43.53151" lon="5.54381">
        <ele>353.42</ele>
        <time>2009-10-06T11:36:23Z</time>
      </trkpt>
      <trkpt lat="43.53142" lon="5.54402">
        <ele>351.98</ele>
        <time>2009-10-06T11:36:40Z</time>
      </trkpt>
      <trkpt lat="43.5313" lon="5.5442">
        <ele>351.5</ele>
        <time>2009-10-06T11:36:56Z</time>
      </trkpt>
      <trkpt lat="43.53125" lon="5.54446">
        <ele>351.5</ele>
        <time>2009-10-06T11:37:15Z</time>
      </trkpt>
      <trkpt lat="43.53131" lon="5.54468">
        <ele>350.06</ele>
        <time>2009-10-06T11:37:34Z</time>
      </trkpt>
      <trkpt lat="43.53133" lon="5.54472">
        <ele>348.13</ele>
        <time>2009-10-06T11:37:38Z</time>
      </trkpt>
      <trkpt lat="43.53145" lon="5.54491">
        <ele>344.29</ele>
        <time>2009-10-06T11:37:56Z</time>
      </trkpt>
      <trkpt lat="43.53157" lon="5.5451">
        <ele>342.85</ele>
        <time>2009-10-06T11:38:14Z</time>
      </trkpt>
      <trkpt lat="43.53168" lon="5.54527">
        <ele>339.48</ele>
        <time>2009-10-06T11:38:32Z</time>
      </trkpt>
      <trkpt lat="43.53174" lon="5.54543">
        <ele>338.52</ele>
        <time>2009-10-06T11:38:50Z</time>
      </trkpt>
      <trkpt lat="43.5318" lon="5.54559">
        <ele>336.12</ele>
        <time>2009-10-06T11:39:06Z</time>
      </trkpt>
      <trkpt lat="43.5318" lon="5.5458">
        <ele>335.16</ele>
        <time>2009-10-06T11:39:22Z</time>
      </trkpt>
      <trkpt lat="43.53182" lon="5.54607">
        <ele>332.75</ele>
        <time>2009-10-06T11:39:45Z</time>
      </trkpt>
      <trkpt lat="43.53183" lon="5.5461">
        <ele>332.27</ele>
        <time>2009-10-06T11:39:47Z</time>
      </trkpt>
      <trkpt lat="43.53187" lon="5.54635">
        <ele>328.91</ele>
        <time>2009-10-06T11:40:07Z</time>
      </trkpt>
      <trkpt lat="43.53189" lon="5.54658">
        <ele>325.54</ele>
        <time>2009-10-06T11:40:24Z</time>
      </trkpt>
      <trkpt lat="43.53188" lon="5.54682">
        <ele>324.1</ele>
        <time>2009-10-06T11:40:43Z</time>
      </trkpt>
      <trkpt lat="43.53192" lon="5.54709">
        <ele>320.74</ele>
        <time>2009-10-06T11:41:04Z</time>
      </trkpt>
      <trkpt lat="43.53193" lon="5.54711">
        <ele>320.74</ele>
        <time>2009-10-06T11:41:06Z</time>
      </trkpt>
      <trkpt lat="43.53201" lon="5.54731">
        <ele>318.81</ele>
        <time>2009-10-06T11:41:24Z</time>
      </trkpt>
      <trkpt lat="43.53206" lon="5.54749">
        <ele>316.89</ele>
        <time>2009-10-06T11:41:43Z</time>
      </trkpt>
      <trkpt lat="43.53208" lon="5.54764">
        <ele>315.45</ele>
        <time>2009-10-06T11:41:58Z</time>
      </trkpt>
      <trkpt lat="43.53203" lon="5.5478">
        <ele>310.64</ele>
        <time>2009-10-06T11:42:15Z</time>
      </trkpt>
      <trkpt lat="43.53197" lon="5.54793">
        <ele>307.76</ele>
        <time>2009-10-06T11:42:31Z</time>
      </trkpt>
      <trkpt lat="43.53194" lon="5.54803">
        <ele>314.01</ele>
        <time>2009-10-06T11:42:45Z</time>
      </trkpt>
      <trkpt lat="43.53179" lon="5.54806">
        <ele>310.64</ele>
        <time>2009-10-06T11:43:01Z</time>
      </trkpt>
      <trkpt lat="43.53167" lon="5.54803">
        <ele>311.12</ele>
        <time>2009-10-06T11:43:21Z</time>
      </trkpt>
      <trkpt lat="43.53152" lon="5.54805">
        <ele>302.47</ele>
        <time>2009-10-06T11:43:36Z</time>
      </trkpt>
      <trkpt lat="43.53138" lon="5.54809">
        <ele>299.11</ele>
        <time>2009-10-06T11:43:52Z</time>
      </trkpt>
      <trkpt lat="43.53126" lon="5.54813">
        <ele>297.67</ele>
        <time>2009-10-06T11:44:11Z</time>
      </trkpt>
      <trkpt lat="43.53114" lon="5.5482">
        <ele>296.7</ele>
        <time>2009-10-06T11:44:27Z</time>
      </trkpt>
      <trkpt lat="43.531" lon="5.54825">
        <ele>297.18</ele>
        <time>2009-10-06T11:44:47Z</time>
      </trkpt>
      <trkpt lat="43.53087" lon="5.54825">
        <ele>297.67</ele>
        <time>2009-10-06T11:45:01Z</time>
      </trkpt>
      <trkpt lat="43.53074" lon="5.5483">
        <ele>293.82</ele>
        <time>2009-10-06T11:45:15Z</time>
      </trkpt>
      <trkpt lat="43.53064" lon="5.54841">
        <ele>286.13</ele>
        <time>2009-10-06T11:45:30Z</time>
      </trkpt>
      <trkpt lat="43.53054" lon="5.54855">
        <ele>282.28</ele>
        <time>2009-10-06T11:45:46Z</time>
      </trkpt>
      <trkpt lat="43.53053" lon="5.54856">
        <ele>282.77</ele>
        <time>2009-10-06T11:45:47Z</time>
      </trkpt>
      <trkpt lat="43.53041" lon="5.5487">
        <ele>282.28</ele>
        <time>2009-10-06T11:46:05Z</time>
      </trkpt>
      <trkpt lat="43.53026" lon="5.54885">
        <ele>280.36</ele>
        <time>2009-10-06T11:46:24Z</time>
      </trkpt>
      <trkpt lat="43.53017" lon="5.54894">
        <ele>278.44</ele>
        <time>2009-10-06T11:46:39Z</time>
      </trkpt>
      <trkpt lat="43.5301" lon="5.54913">
        <ele>282.77</ele>
        <time>2009-10-06T11:46:57Z</time>
      </trkpt>
      <trkpt lat="43.53005" lon="5.5493">
        <ele>278.44</ele>
        <time>2009-10-06T11:47:12Z</time>
      </trkpt>
      <trkpt lat="43.53001" lon="5.54934">
        <ele>277</ele>
        <time>2009-10-06T11:47:30Z</time>
      </trkpt>
      <trkpt lat="43.53001" lon="5.54937">
        <ele>275.56</ele>
        <time>2009-10-06T11:48:18Z</time>
      </trkpt>
      <trkpt lat="43.52997" lon="5.54942">
        <ele>277.48</ele>
        <time>2009-10-06T11:49:01Z</time>
      </trkpt>
      <trkpt lat="43.52986" lon="5.54945">
        <ele>277</ele>
        <time>2009-10-06T11:49:21Z</time>
      </trkpt>
      <trkpt lat="43.52966" lon="5.54945">
        <ele>276.04</ele>
        <time>2009-10-06T11:49:45Z</time>
      </trkpt>
      <trkpt lat="43.52951" lon="5.54956">
        <ele>276.52</ele>
        <time>2009-10-06T11:50:03Z</time>
      </trkpt>
      <trkpt lat="43.52936" lon="5.54961">
        <ele>276.04</ele>
        <time>2009-10-06T11:50:22Z</time>
      </trkpt>
      <trkpt lat="43.5293" lon="5.54955">
        <ele>274.11</ele>
        <time>2009-10-06T11:50:37Z</time>
      </trkpt>
      <trkpt lat="43.52921" lon="5.54945">
        <ele>272.19</ele>
        <time>2009-10-06T11:50:55Z</time>
      </trkpt>
      <trkpt lat="43.5291" lon="5.54937">
        <ele>272.19</ele>
        <time>2009-10-06T11:51:11Z</time>
      </trkpt>
      <trkpt lat="43.529" lon="5.54927">
        <ele>273.15</ele>
        <time>2009-10-06T11:51:27Z</time>
      </trkpt>
      <trkpt lat="43.5289" lon="5.54915">
        <ele>272.67</ele>
        <time>2009-10-06T11:51:44Z</time>
      </trkpt>
      <trkpt lat="43.52873" lon="5.54897">
        <ele>272.19</ele>
        <time>2009-10-06T11:52:07Z</time>
      </trkpt>
      <trkpt lat="43.5286" lon="5.54883">
        <ele>270.75</ele>
        <time>2009-10-06T11:52:23Z</time>
      </trkpt>
      <trkpt lat="43.5284" lon="5.54859">
        <ele>269.31</ele>
        <time>2009-10-06T11:52:48Z</time>
      </trkpt>
      <trkpt lat="43.52829" lon="5.54842">
        <ele>268.35</ele>
        <time>2009-10-06T11:53:01Z</time>
      </trkpt>
      <trkpt lat="43.52818" lon="5.54823">
        <ele>266.42</ele>
        <time>2009-10-06T11:53:17Z</time>
      </trkpt>
      <trkpt lat="43.52807" lon="5.54811">
        <ele>266.9</ele>
        <time>2009-10-06T11:53:33Z</time>
      </trkpt>
      <trkpt lat="43.52794" lon="5.54807">
        <ele>267.86</ele>
        <time>2009-10-06T11:53:48Z</time>
      </trkpt>
      <trkpt lat="43.52789" lon="5.54798">
        <ele>268.35</ele>
        <time>2009-10-06T11:53:57Z</time>
      </trkpt>
      <trkpt lat="43.52766" lon="5.54793">
        <ele>268.35</ele>
        <time>2009-10-06T11:54:17Z</time>
      </trkpt>
      <trkpt lat="43.52749" lon="5.54781">
        <ele>271.71</ele>
        <time>2009-10-06T11:54:38Z</time>
      </trkpt>
      <trkpt lat="43.5274" lon="5.54776">
        <ele>269.79</ele>
        <time>2009-10-06T11:54:54Z</time>
      </trkpt>
      <trkpt lat="43.52728" lon="5.54772">
        <ele>268.83</ele>
        <time>2009-10-06T11:55:09Z</time>
      </trkpt>
      <trkpt lat="43.52713" lon="5.54764">
        <ele>266.42</ele>
        <time>2009-10-06T11:55:24Z</time>
      </trkpt>
      <trkpt lat="43.52701" lon="5.54746">
        <ele>264.98</ele>
        <time>2009-10-06T11:55:42Z</time>
      </trkpt>
      <trkpt lat="43.52691" lon="5.54732">
        <ele>265.94</ele>
        <time>2009-10-06T11:55:57Z</time>
      </trkpt>
      <trkpt lat="43.52679" lon="5.5472">
        <ele>269.31</ele>
        <time>2009-10-06T11:56:12Z</time>
      </trkpt>
      <trkpt lat="43.52671" lon="5.54701">
        <ele>266.9</ele>
        <time>2009-10-06T11:56:28Z</time>
      </trkpt>
      <trkpt lat="43.52666" lon="5.5469">
        <ele>264.5</ele>
        <time>2009-10-06T11:56:37Z</time>
      </trkpt>
      <trkpt lat="43.52649" lon="5.54662">
        <ele>263.54</ele>
        <time>2009-10-06T11:56:59Z</time>
      </trkpt>
      <trkpt lat="43.52637" lon="5.54639">
        <ele>264.98</ele>
        <time>2009-10-06T11:57:17Z</time>
      </trkpt>
      <trkpt lat="43.52622" lon="5.54613">
        <ele>263.54</ele>
        <time>2009-10-06T11:57:37Z</time>
      </trkpt>
      <trkpt lat="43.52607" lon="5.54588">
        <ele>265.94</ele>
        <time>2009-10-06T11:57:58Z</time>
      </trkpt>
      <trkpt lat="43.52594" lon="5.54566">
        <ele>265.46</ele>
        <time>2009-10-06T11:58:15Z</time>
      </trkpt>
      <trkpt lat="43.5258" lon="5.54541">
        <ele>264.5</ele>
        <time>2009-10-06T11:58:35Z</time>
      </trkpt>
      <trkpt lat="43.5257" lon="5.54515">
        <ele>264.5</ele>
        <time>2009-10-06T11:58:55Z</time>
      </trkpt>
      <trkpt lat="43.52567" lon="5.54492">
        <ele>267.86</ele>
        <time>2009-10-06T11:59:13Z</time>
      </trkpt>
      <trkpt lat="43.52565" lon="5.54471">
        <ele>269.31</ele>
        <time>2009-10-06T11:59:28Z</time>
      </trkpt>
      <trkpt lat="43.52561" lon="5.54447">
        <ele>273.15</ele>
        <time>2009-10-06T11:59:46Z</time>
      </trkpt>
      <trkpt lat="43.52558" lon="5.54431">
        <ele>275.56</ele>
        <time>2009-10-06T12:00:00Z</time>
      </trkpt>
      <trkpt lat="43.52554" lon="5.54412">
        <ele>276.52</ele>
        <time>2009-10-06T12:00:17Z</time>
      </trkpt>
      <trkpt lat="43.52551" lon="5.54394">
        <ele>276.52</ele>
        <time>2009-10-06T12:00:32Z</time>
      </trkpt>
      <trkpt lat="43.52546" lon="5.54371">
        <ele>279.88</ele>
        <time>2009-10-06T12:00:51Z</time>
      </trkpt>
      <trkpt lat="43.52542" lon="5.54348">
        <ele>282.28</ele>
        <time>2009-10-06T12:01:09Z</time>
      </trkpt>
      <trkpt lat="43.5254" lon="5.5433">
        <ele>284.21</ele>
        <time>2009-10-06T12:01:23Z</time>
      </trkpt>
      <trkpt lat="43.52541" lon="5.54307">
        <ele>287.57</ele>
        <time>2009-10-06T12:01:38Z</time>
      </trkpt>
      <trkpt lat="43.52544" lon="5.54288">
        <ele>288.53</ele>
        <time>2009-10-06T12:01:51Z</time>
      </trkpt>
      <trkpt lat="43.52546" lon="5.54273">
        <ele>289.97</ele>
        <time>2009-10-06T12:02:04Z</time>
      </trkpt>
      <trkpt lat="43.5255" lon="5.54258">
        <ele>292.38</ele>
        <time>2009-10-06T12:02:16Z</time>
      </trkpt>
      <trkpt lat="43.52553" lon="5.54238">
        <ele>296.7</ele>
        <time>2009-10-06T12:02:30Z</time>
      </trkpt>
      <trkpt lat="43.52557" lon="5.54221">
        <ele>297.67</ele>
        <time>2009-10-06T12:02:41Z</time>
      </trkpt>
      <trkpt lat="43.52561" lon="5.54199">
        <ele>296.7</ele>
        <time>2009-10-06T12:02:57Z</time>
      </trkpt>
      <trkpt lat="43.52559" lon="5.54188">
        <ele>300.07</ele>
        <time>2009-10-06T12:03:12Z</time>
      </trkpt>
      <trkpt lat="43.52562" lon="5.54186">
        <ele>299.59</ele>
        <time>2009-10-06T12:03:27Z</time>
      </trkpt>
      <trkpt lat="43.52559" lon="5.54181">
        <ele>302.95</ele>
        <time>2009-10-06T12:03:50Z</time>
      </trkpt>
      <trkpt lat="43.5256" lon="5.54175">
        <ele>296.22</ele>
        <time>2009-10-06T12:04:07Z</time>
      </trkpt>
      <trkpt lat="43.52557" lon="5.54173">
        <ele>293.82</ele>
        <time>2009-10-06T12:04:26Z</time>
      </trkpt>
      <trkpt lat="43.52554" lon="5.54172">
        <ele>291.9</ele>
        <time>2009-10-06T12:04:48Z</time>
      </trkpt>
      <trkpt lat="43.52552" lon="5.54169">
        <ele>290.94</ele>
        <time>2009-10-06T12:05:08Z</time>
      </trkpt>
      <trkpt lat="43.52553" lon="5.54169">
        <ele>285.65</ele>
        <time>2009-10-06T12:05:26Z</time>
      </trkpt>
      <trkpt lat="43.52554" lon="5.54167">
        <ele>286.61</ele>
        <time>2009-10-06T12:06:09Z</time>
      </trkpt>
      <trkpt lat="43.52555" lon="5.54168">
        <ele>284.21</ele>
        <time>2009-10-06T12:06:51Z</time>
      </trkpt>
      <trkpt lat="43.52552" lon="5.54167">
        <ele>292.38</ele>
        <time>2009-10-06T12:07:31Z</time>
      </trkpt>
      <trkpt lat="43.52554" lon="5.54168">
        <ele>286.61</ele>
        <time>2009-10-06T12:08:32Z</time>
      </trkpt>
      <trkpt lat="43.52558" lon="5.54167">
        <ele>275.07</ele>
        <time>2009-10-06T12:09:31Z</time>
      </trkpt>
      <trkpt lat="43.52557" lon="5.54166">
        <ele>284.69</ele>
        <time>2009-10-06T12:10:02Z</time>
      </trkpt>
      <trkpt lat="43.52557" lon="5.54168">
        <ele>283.25</ele>
        <time>2009-10-06T12:11:00Z</time>
      </trkpt>
      <trkpt lat="43.52557" lon="5.54164">
        <ele>282.28</ele>
        <time>2009-10-06T12:12:13Z</time>
      </trkpt>
      <trkpt lat="43.52554" lon="5.54158">
        <ele>283.73</ele>
        <time>2009-10-06T12:12:19Z</time>
      </trkpt>
      <trkpt lat="43.52544" lon="5.54136">
        <ele>289.01</ele>
        <time>2009-10-06T12:12:37Z</time>
      </trkpt>
      <trkpt lat="43.52538" lon="5.54113">
        <ele>289.49</ele>
        <time>2009-10-06T12:12:56Z</time>
      </trkpt>
      <trkpt lat="43.52538" lon="5.54095">
        <ele>290.94</ele>
        <time>2009-10-06T12:13:13Z</time>
      </trkpt>
      <trkpt lat="43.52542" lon="5.54086">
        <ele>290.94</ele>
        <time>2009-10-06T12:13:35Z</time>
      </trkpt>
      <trkpt lat="43.52548" lon="5.54073">
        <ele>291.42</ele>
        <time>2009-10-06T12:13:51Z</time>
      </trkpt>
      <trkpt lat="43.52552" lon="5.54066">
        <ele>292.86</ele>
        <time>2009-10-06T12:14:02Z</time>
      </trkpt>
      <trkpt lat="43.52558" lon="5.5406">
        <ele>295.74</ele>
        <time>2009-10-06T12:14:21Z</time>
      </trkpt>
      <trkpt lat="43.52565" lon="5.54049">
        <ele>296.7</ele>
        <time>2009-10-06T12:14:37Z</time>
      </trkpt>
      <trkpt lat="43.52572" lon="5.54037">
        <ele>298.15</ele>
        <time>2009-10-06T12:14:53Z</time>
      </trkpt>
      <trkpt lat="43.52577" lon="5.54019">
        <ele>301.51</ele>
        <time>2009-10-06T12:15:14Z</time>
      </trkpt>
      <trkpt lat="43.52579" lon="5.53993">
        <ele>306.8</ele>
        <time>2009-10-06T12:15:35Z</time>
      </trkpt>
      <trkpt lat="43.52578" lon="5.53961">
        <ele>311.6</ele>
        <time>2009-10-06T12:15:56Z</time>
      </trkpt>
      <trkpt lat="43.5258" lon="5.53937">
        <ele>314.97</ele>
        <time>2009-10-06T12:16:16Z</time>
      </trkpt>
      <trkpt lat="43.5258" lon="5.53909">
        <ele>317.37</ele>
        <time>2009-10-06T12:16:42Z</time>
      </trkpt>
      <trkpt lat="43.52581" lon="5.53885">
        <ele>319.78</ele>
        <time>2009-10-06T12:17:04Z</time>
      </trkpt>
      <trkpt lat="43.5258" lon="5.53857">
        <ele>321.7</ele>
        <time>2009-10-06T12:17:27Z</time>
      </trkpt>
      <trkpt lat="43.52577" lon="5.53829">
        <ele>319.78</ele>
        <time>2009-10-06T12:17:48Z</time>
      </trkpt>
      <trkpt lat="43.52574" lon="5.53806">
        <ele>318.81</ele>
        <time>2009-10-06T12:18:05Z</time>
      </trkpt>
      <trkpt lat="43.52564" lon="5.53776">
        <ele>318.81</ele>
        <time>2009-10-06T12:18:28Z</time>
      </trkpt>
      <trkpt lat="43.52558" lon="5.53751">
        <ele>319.78</ele>
        <time>2009-10-06T12:18:46Z</time>
      </trkpt>
      <trkpt lat="43.5255" lon="5.53725">
        <ele>319.3</ele>
        <time>2009-10-06T12:19:05Z</time>
      </trkpt>
      <trkpt lat="43.52552" lon="5.53702">
        <ele>317.37</ele>
        <time>2009-10-06T12:19:24Z</time>
      </trkpt>
      <trkpt lat="43.5255" lon="5.5369">
        <ele>314.01</ele>
        <time>2009-10-06T12:19:40Z</time>
      </trkpt>
      <trkpt lat="43.52549" lon="5.53695">
        <ele>311.6</ele>
        <time>2009-10-06T12:19:53Z</time>
      </trkpt>
      <trkpt lat="43.52545" lon="5.53695">
        <ele>313.53</ele>
        <time>2009-10-06T12:20:21Z</time>
      </trkpt>
      <trkpt lat="43.52556" lon="5.53696">
        <ele>308.72</ele>
        <time>2009-10-06T12:20:39Z</time>
      </trkpt>
      <trkpt lat="43.52552" lon="5.53699">
        <ele>312.09</ele>
        <time>2009-10-06T12:21:00Z</time>
      </trkpt>
      <trkpt lat="43.52542" lon="5.53707">
        <ele>317.85</ele>
        <time>2009-10-06T12:21:15Z</time>
      </trkpt>
      <trkpt lat="43.52537" lon="5.53724">
        <ele>312.57</ele>
        <time>2009-10-06T12:21:33Z</time>
      </trkpt>
      <trkpt lat="43.52526" lon="5.53737">
        <ele>311.12</ele>
        <time>2009-10-06T12:21:49Z</time>
      </trkpt>
      <trkpt lat="43.52519" lon="5.53747">
        <ele>308.24</ele>
        <time>2009-10-06T12:22:04Z</time>
      </trkpt>
      <trkpt lat="43.52512" lon="5.53745">
        <ele>306.8</ele>
        <time>2009-10-06T12:22:09Z</time>
      </trkpt>
      <trkpt lat="43.52501" lon="5.53728">
        <ele>305.84</ele>
        <time>2009-10-06T12:22:25Z</time>
      </trkpt>
      <trkpt lat="43.52503" lon="5.53702">
        <ele>303.43</ele>
        <time>2009-10-06T12:22:45Z</time>
      </trkpt>
      <trkpt lat="43.52505" lon="5.53691">
        <ele>301.51</ele>
        <time>2009-10-06T12:23:02Z</time>
      </trkpt>
      <trkpt lat="43.52501" lon="5.53681">
        <ele>309.2</ele>
        <time>2009-10-06T12:23:22Z</time>
      </trkpt>
      <trkpt lat="43.52507" lon="5.53665">
        <ele>304.88</ele>
        <time>2009-10-06T12:23:39Z</time>
      </trkpt>
      <trkpt lat="43.5251" lon="5.53658">
        <ele>303.43</ele>
        <time>2009-10-06T12:23:46Z</time>
      </trkpt>
      <trkpt lat="43.52515" lon="5.53644">
        <ele>302.47</ele>
        <time>2009-10-06T12:23:59Z</time>
      </trkpt>
      <trkpt lat="43.52516" lon="5.53618">
        <ele>300.07</ele>
        <time>2009-10-06T12:24:18Z</time>
      </trkpt>
      <trkpt lat="43.52511" lon="5.53596">
        <ele>296.7</ele>
        <time>2009-10-06T12:24:37Z</time>
      </trkpt>
      <trkpt lat="43.5251" lon="5.5359">
        <ele>293.82</ele>
        <time>2009-10-06T12:24:42Z</time>
      </trkpt>
      <trkpt lat="43.52502" lon="5.53577">
        <ele>292.86</ele>
        <time>2009-10-06T12:24:55Z</time>
      </trkpt>
      <trkpt lat="43.52496" lon="5.53563">
        <ele>289.97</ele>
        <time>2009-10-06T12:25:08Z</time>
      </trkpt>
      <trkpt lat="43.52492" lon="5.53544">
        <ele>288.53</ele>
        <time>2009-10-06T12:25:24Z</time>
      </trkpt>
      <trkpt lat="43.52491" lon="5.53537">
        <ele>288.53</ele>
        <time>2009-10-06T12:25:30Z</time>
      </trkpt>
      <trkpt lat="43.52491" lon="5.53531">
        <ele>289.01</ele>
        <time>2009-10-06T12:25:35Z</time>
      </trkpt>
      <trkpt lat="43.5249" lon="5.53501">
        <ele>291.42</ele>
        <time>2009-10-06T12:25:58Z</time>
      </trkpt>
      <trkpt lat="43.5249" lon="5.53495">
        <ele>289.49</ele>
        <time>2009-10-06T12:26:16Z</time>
      </trkpt>
      <trkpt lat="43.52492" lon="5.53482">
        <ele>289.01</ele>
        <time>2009-10-06T12:26:44Z</time>
      </trkpt>
      <trkpt lat="43.52493" lon="5.53465">
        <ele>285.65</ele>
        <time>2009-10-06T12:26:58Z</time>
      </trkpt>
      <trkpt lat="43.52493" lon="5.53462">
        <ele>285.17</ele>
        <time>2009-10-06T12:27:00Z</time>
      </trkpt>
      <trkpt lat="43.52492" lon="5.53444">
        <ele>285.17</ele>
        <time>2009-10-06T12:27:13Z</time>
      </trkpt>
      <trkpt lat="43.52493" lon="5.53437">
        <ele>285.65</ele>
        <time>2009-10-06T12:27:18Z</time>
      </trkpt>
      <trkpt lat="43.52494" lon="5.53412">
        <ele>289.97</ele>
        <time>2009-10-06T12:27:36Z</time>
      </trkpt>
      <trkpt lat="43.52495" lon="5.53402">
        <ele>286.61</ele>
        <time>2009-10-06T12:27:43Z</time>
      </trkpt>
      <trkpt lat="43.52496" lon="5.53372">
        <ele>282.28</ele>
        <time>2009-10-06T12:28:02Z</time>
      </trkpt>
      <trkpt lat="43.52497" lon="5.5334">
        <ele>278.44</ele>
        <time>2009-10-06T12:28:23Z</time>
      </trkpt>
      <trkpt lat="43.52498" lon="5.5331">
        <ele>275.56</ele>
        <time>2009-10-06T12:28:42Z</time>
      </trkpt>
      <trkpt lat="43.52498" lon="5.53306">
        <ele>276.52</ele>
        <time>2009-10-06T12:28:45Z</time>
      </trkpt>
      <trkpt lat="43.52498" lon="5.53289">
        <ele>272.67</ele>
        <time>2009-10-06T12:28:57Z</time>
      </trkpt>
      <trkpt lat="43.52489" lon="5.53261">
        <ele>269.79</ele>
        <time>2009-10-06T12:29:15Z</time>
      </trkpt>
      <trkpt lat="43.52487" lon="5.53256">
        <ele>270.27</ele>
        <time>2009-10-06T12:29:31Z</time>
      </trkpt>
      <trkpt lat="43.52485" lon="5.53254">
        <ele>273.15</ele>
        <time>2009-10-06T12:29:45Z</time>
      </trkpt>
      <trkpt lat="43.52485" lon="5.53255">
        <ele>277.48</ele>
        <time>2009-10-06T12:30:12Z</time>
      </trkpt>
      <trkpt lat="43.52485" lon="5.53254">
        <ele>274.11</ele>
        <time>2009-10-06T12:30:46Z</time>
      </trkpt>
      <trkpt lat="43.52486" lon="5.53255">
        <ele>273.15</ele>
        <time>2009-10-06T12:31:15Z</time>
      </trkpt>
      <trkpt lat="43.52486" lon="5.53255">
        <ele>272.19</ele>
        <time>2009-10-06T12:31:49Z</time>
      </trkpt>
      <trkpt lat="43.52481" lon="5.53254">
        <ele>270.27</ele>
        <time>2009-10-06T12:32:06Z</time>
      </trkpt>
      <trkpt lat="43.52464" lon="5.53242">
        <ele>268.35</ele>
        <time>2009-10-06T12:32:22Z</time>
      </trkpt>
      <trkpt lat="43.52453" lon="5.53229">
        <ele>269.31</ele>
        <time>2009-10-06T12:32:35Z</time>
      </trkpt>
      <trkpt lat="43.52439" lon="5.53223">
        <ele>282.28</ele>
        <time>2009-10-06T12:32:50Z</time>
      </trkpt>
      <trkpt lat="43.52431" lon="5.53218">
        <ele>280.84</ele>
        <time>2009-10-06T12:33:03Z</time>
      </trkpt>
      <trkpt lat="43.5242" lon="5.53216">
        <ele>275.56</ele>
        <time>2009-10-06T12:33:19Z</time>
      </trkpt>
      <trkpt lat="43.52407" lon="5.5321">
        <ele>275.56</ele>
        <time>2009-10-06T12:33:35Z</time>
      </trkpt>
      <trkpt lat="43.52391" lon="5.53196">
        <ele>266.42</ele>
        <time>2009-10-06T12:33:54Z</time>
      </trkpt>
      <trkpt lat="43.5239" lon="5.53193">
        <ele>264.5</ele>
        <time>2009-10-06T12:33:57Z</time>
      </trkpt>
      <trkpt lat="43.52386" lon="5.53178">
        <ele>260.17</ele>
        <time>2009-10-06T12:34:13Z</time>
      </trkpt>
      <trkpt lat="43.52382" lon="5.53174">
        <ele>262.1</ele>
        <time>2009-10-06T12:34:30Z</time>
      </trkpt>
      <trkpt lat="43.52381" lon="5.53167">
        <ele>262.1</ele>
        <time>2009-10-06T12:34:36Z</time>
      </trkpt>
      <trkpt lat="43.52392" lon="5.53158">
        <ele>261.62</ele>
        <time>2009-10-06T12:34:52Z</time>
      </trkpt>
      <trkpt lat="43.52405" lon="5.53136">
        <ele>260.65</ele>
        <time>2009-10-06T12:35:13Z</time>
      </trkpt>
      <trkpt lat="43.52406" lon="5.53113">
        <ele>261.14</ele>
        <time>2009-10-06T12:35:31Z</time>
      </trkpt>
      <trkpt lat="43.52404" lon="5.53084">
        <ele>264.02</ele>
        <time>2009-10-06T12:35:52Z</time>
      </trkpt>
      <trkpt lat="43.52403" lon="5.53066">
        <ele>263.54</ele>
        <time>2009-10-06T12:36:04Z</time>
      </trkpt>
      <trkpt lat="43.52405" lon="5.53036">
        <ele>262.58</ele>
        <time>2009-10-06T12:36:25Z</time>
      </trkpt>
      <trkpt lat="43.52409" lon="5.53003">
        <ele>260.17</ele>
        <time>2009-10-06T12:36:47Z</time>
      </trkpt>
      <trkpt lat="43.52414" lon="5.52973">
        <ele>257.77</ele>
        <time>2009-10-06T12:37:07Z</time>
      </trkpt>
      <trkpt lat="43.52419" lon="5.52944">
        <ele>256.33</ele>
        <time>2009-10-06T12:37:27Z</time>
      </trkpt>
      <trkpt lat="43.52426" lon="5.52919">
        <ele>259.69</ele>
        <time>2009-10-06T12:37:46Z</time>
      </trkpt>
      <trkpt lat="43.52434" lon="5.52898">
        <ele>257.29</ele>
        <time>2009-10-06T12:38:02Z</time>
      </trkpt>
      <trkpt lat="43.52438" lon="5.5287">
        <ele>259.69</ele>
        <time>2009-10-06T12:38:21Z</time>
      </trkpt>
      <trkpt lat="43.5244" lon="5.52843">
        <ele>262.1</ele>
        <time>2009-10-06T12:38:40Z</time>
      </trkpt>
      <trkpt lat="43.52442" lon="5.52815">
        <ele>262.1</ele>
        <time>2009-10-06T12:39:02Z</time>
      </trkpt>
      <trkpt lat="43.52442" lon="5.52792">
        <ele>261.62</ele>
        <time>2009-10-06T12:39:21Z</time>
      </trkpt>
      <trkpt lat="43.52445" lon="5.52777">
        <ele>262.1</ele>
        <time>2009-10-06T12:39:35Z</time>
      </trkpt>
      <trkpt lat="43.52445" lon="5.52757">
        <ele>263.06</ele>
        <time>2009-10-06T12:39:53Z</time>
      </trkpt>
      <trkpt lat="43.52442" lon="5.5274">
        <ele>264.98</ele>
        <time>2009-10-06T12:40:11Z</time>
      </trkpt>
      <trkpt lat="43.5244" lon="5.52724">
        <ele>269.79</ele>
        <time>2009-10-06T12:40:28Z</time>
      </trkpt>
      <trkpt lat="43.52441" lon="5.52701">
        <ele>273.15</ele>
        <time>2009-10-06T12:40:47Z</time>
      </trkpt>
      <trkpt lat="43.52444" lon="5.52687">
        <ele>273.15</ele>
        <time>2009-10-06T12:40:58Z</time>
      </trkpt>
      <trkpt lat="43.52451" lon="5.52667">
        <ele>273.15</ele>
        <time>2009-10-06T12:41:14Z</time>
      </trkpt>
      <trkpt lat="43.52462" lon="5.52643">
        <ele>272.19</ele>
        <time>2009-10-06T12:41:32Z</time>
      </trkpt>
      <trkpt lat="43.52473" lon="5.5262">
        <ele>270.27</ele>
        <time>2009-10-06T12:41:49Z</time>
      </trkpt>
      <trkpt lat="43.52487" lon="5.52604">
        <ele>271.71</ele>
        <time>2009-10-06T12:42:08Z</time>
      </trkpt>
      <trkpt lat="43.52495" lon="5.52588">
        <ele>273.15</ele>
        <time>2009-10-06T12:42:22Z</time>
      </trkpt>
      <trkpt lat="43.52503" lon="5.52558">
        <ele>274.59</ele>
        <time>2009-10-06T12:42:44Z</time>
      </trkpt>
      <trkpt lat="43.52512" lon="5.5253">
        <ele>273.15</ele>
        <time>2009-10-06T12:43:03Z</time>
      </trkpt>
      <trkpt lat="43.52516" lon="5.52516">
        <ele>275.07</ele>
        <time>2009-10-06T12:43:14Z</time>
      </trkpt>
      <trkpt lat="43.52518" lon="5.52507">
        <ele>273.63</ele>
        <time>2009-10-06T12:43:20Z</time>
      </trkpt>
      <trkpt lat="43.52525" lon="5.5248">
        <ele>269.79</ele>
        <time>2009-10-06T12:43:37Z</time>
      </trkpt>
      <trkpt lat="43.52527" lon="5.52477">
        <ele>268.35</ele>
        <time>2009-10-06T12:43:39Z</time>
      </trkpt>
      <trkpt lat="43.52528" lon="5.52474">
        <ele>268.35</ele>
        <time>2009-10-06T12:43:41Z</time>
      </trkpt>
      <trkpt lat="43.52535" lon="5.52451">
        <ele>269.31</ele>
        <time>2009-10-06T12:43:59Z</time>
      </trkpt>
      <trkpt lat="43.52538" lon="5.52433">
        <ele>274.59</ele>
        <time>2009-10-06T12:44:14Z</time>
      </trkpt>
      <trkpt lat="43.52544" lon="5.52414">
        <ele>277.96</ele>
        <time>2009-10-06T12:44:31Z</time>
      </trkpt>
      <trkpt lat="43.52557" lon="5.52395">
        <ele>278.92</ele>
        <time>2009-10-06T12:44:47Z</time>
      </trkpt>
      <trkpt lat="43.5257" lon="5.52374">
        <ele>282.28</ele>
        <time>2009-10-06T12:45:06Z</time>
      </trkpt>
      <trkpt lat="43.5258" lon="5.52358">
        <ele>277.48</ele>
        <time>2009-10-06T12:45:19Z</time>
      </trkpt>
      <trkpt lat="43.52588" lon="5.52337">
        <ele>279.88</ele>
        <time>2009-10-06T12:45:36Z</time>
      </trkpt>
      <trkpt lat="43.52592" lon="5.52327">
        <ele>280.36</ele>
        <time>2009-10-06T12:45:44Z</time>
      </trkpt>
      <trkpt lat="43.52597" lon="5.52303">
        <ele>280.84</ele>
        <time>2009-10-06T12:46:03Z</time>
      </trkpt>
      <trkpt lat="43.52596" lon="5.52296">
        <ele>280.84</ele>
        <time>2009-10-06T12:46:08Z</time>
      </trkpt>
      <trkpt lat="43.52595" lon="5.52288">
        <ele>282.28</ele>
        <time>2009-10-06T12:46:13Z</time>
      </trkpt>
      <trkpt lat="43.52593" lon="5.52259">
        <ele>283.73</ele>
        <time>2009-10-06T12:46:31Z</time>
      </trkpt>
      <trkpt lat="43.52589" lon="5.52236">
        <ele>286.13</ele>
        <time>2009-10-06T12:46:48Z</time>
      </trkpt>
      <trkpt lat="43.52581" lon="5.5222">
        <ele>289.49</ele>
        <time>2009-10-06T12:47:05Z</time>
      </trkpt>
      <trkpt lat="43.52576" lon="5.522">
        <ele>288.53</ele>
        <time>2009-10-06T12:47:21Z</time>
      </trkpt>
      <trkpt lat="43.52576" lon="5.52179">
        <ele>290.46</ele>
        <time>2009-10-06T12:47:37Z</time>
      </trkpt>
      <trkpt lat="43.52578" lon="5.52154">
        <ele>291.9</ele>
        <time>2009-10-06T12:47:55Z</time>
      </trkpt>
      <trkpt lat="43.52582" lon="5.52131">
        <ele>291.9</ele>
        <time>2009-10-06T12:48:13Z</time>
      </trkpt>
      <trkpt lat="43.52584" lon="5.52108">
        <ele>291.9</ele>
        <time>2009-10-06T12:48:30Z</time>
      </trkpt>
      <trkpt lat="43.5259" lon="5.52088">
        <ele>294.78</ele>
        <time>2009-10-06T12:48:49Z</time>
      </trkpt>
      <trkpt lat="43.52596" lon="5.52067">
        <ele>295.74</ele>
        <time>2009-10-06T12:49:07Z</time>
      </trkpt>
      <trkpt lat="43.52601" lon="5.5204">
        <ele>294.3</ele>
        <time>2009-10-06T12:49:30Z</time>
      </trkpt>
      <trkpt lat="43.52601" lon="5.52032">
        <ele>291.42</ele>
        <time>2009-10-06T12:49:49Z</time>
      </trkpt>
      <trkpt lat="43.526" lon="5.52028">
        <ele>287.09</ele>
        <time>2009-10-06T12:50:20Z</time>
      </trkpt>
      <trkpt lat="43.526" lon="5.52031">
        <ele>296.7</ele>
        <time>2009-10-06T12:51:14Z</time>
      </trkpt>
      <trkpt lat="43.52598" lon="5.5203">
        <ele>294.3</ele>
        <time>2009-10-06T12:51:42Z</time>
      </trkpt>
      <trkpt lat="43.52598" lon="5.52025">
        <ele>294.78</ele>
        <time>2009-10-06T12:52:14Z</time>
      </trkpt>
      <trkpt lat="43.52591" lon="5.52003">
        <ele>289.97</ele>
        <time>2009-10-06T12:52:35Z</time>
      </trkpt>
      <trkpt lat="43.52587" lon="5.51992">
        <ele>289.97</ele>
        <time>2009-10-06T12:52:53Z</time>
      </trkpt>
      <trkpt lat="43.52584" lon="5.51982">
        <ele>286.61</ele>
        <time>2009-10-06T12:53:14Z</time>
      </trkpt>
      <trkpt lat="43.52583" lon="5.51977">
        <ele>290.94</ele>
        <time>2009-10-06T12:53:28Z</time>
      </trkpt>
      <trkpt lat="43.52584" lon="5.51959">
        <ele>290.94</ele>
        <time>2009-10-06T12:53:44Z</time>
      </trkpt>
      <trkpt lat="43.52581" lon="5.51946">
        <ele>292.86</ele>
        <time>2009-10-06T12:53:58Z</time>
      </trkpt>
      <trkpt lat="43.52579" lon="5.51929">
        <ele>292.38</ele>
        <time>2009-10-06T12:54:11Z</time>
      </trkpt>
      <trkpt lat="43.52575" lon="5.51912">
        <ele>289.01</ele>
        <time>2009-10-06T12:54:26Z</time>
      </trkpt>
      <trkpt lat="43.5257" lon="5.51896">
        <ele>287.09</ele>
        <time>2009-10-06T12:54:36Z</time>
      </trkpt>
      <trkpt lat="43.52568" lon="5.51881">
        <ele>283.73</ele>
        <time>2009-10-06T12:54:48Z</time>
      </trkpt>
      <trkpt lat="43.52563" lon="5.51871">
        <ele>282.77</ele>
        <time>2009-10-06T12:54:57Z</time>
      </trkpt>
      <trkpt lat="43.52558" lon="5.51855">
        <ele>290.94</ele>
        <time>2009-10-06T12:55:12Z</time>
      </trkpt>
      <trkpt lat="43.52559" lon="5.51841">
        <ele>285.17</ele>
        <time>2009-10-06T12:55:26Z</time>
      </trkpt>
      <trkpt lat="43.52562" lon="5.51826">
        <ele>279.4</ele>
        <time>2009-10-06T12:55:41Z</time>
      </trkpt>
      <trkpt lat="43.52562" lon="5.51815">
        <ele>277</ele>
        <time>2009-10-06T12:55:56Z</time>
      </trkpt>
      <trkpt lat="43.52566" lon="5.51803">
        <ele>277</ele>
        <time>2009-10-06T12:56:09Z</time>
      </trkpt>
      <trkpt lat="43.5257" lon="5.51785">
        <ele>275.07</ele>
        <time>2009-10-06T12:56:25Z</time>
      </trkpt>
      <trkpt lat="43.52574" lon="5.51775">
        <ele>273.15</ele>
        <time>2009-10-06T12:56:41Z</time>
      </trkpt>
      <trkpt lat="43.52575" lon="5.51758">
        <ele>271.23</ele>
        <time>2009-10-06T12:56:58Z</time>
      </trkpt>
      <trkpt lat="43.5258" lon="5.51742">
        <ele>261.62</ele>
        <time>2009-10-06T12:57:13Z</time>
      </trkpt>
      <trkpt lat="43.52581" lon="5.51731">
        <ele>263.06</ele>
        <time>2009-10-06T12:57:28Z</time>
      </trkpt>
      <trkpt lat="43.52584" lon="5.51712">
        <ele>252.96</ele>
        <time>2009-10-06T12:57:44Z</time>
      </trkpt>
      <trkpt lat="43.52582" lon="5.51702">
        <ele>252.96</ele>
        <time>2009-10-06T12:57:51Z</time>
      </trkpt>
      <trkpt lat="43.52587" lon="5.51687">
        <ele>257.29</ele>
        <time>2009-10-06T12:58:08Z</time>
      </trkpt>
      <trkpt lat="43.52589" lon="5.51671">
        <ele>262.1</ele>
        <time>2009-10-06T12:58:22Z</time>
      </trkpt>
      <trkpt lat="43.52596" lon="5.51652">
        <ele>253.44</ele>
        <time>2009-10-06T12:58:38Z</time>
      </trkpt>
      <trkpt lat="43.52597" lon="5.51635">
        <ele>252.96</ele>
        <time>2009-10-06T12:58:54Z</time>
      </trkpt>
      <trkpt lat="43.52599" lon="5.51617">
        <ele>253.44</ele>
        <time>2009-10-06T12:59:09Z</time>
      </trkpt>
      <trkpt lat="43.52604" lon="5.51598">
        <ele>245.27</ele>
        <time>2009-10-06T12:59:25Z</time>
      </trkpt>
      <trkpt lat="43.52606" lon="5.51589">
        <ele>243.35</ele>
        <time>2009-10-06T12:59:36Z</time>
      </trkpt>
      <trkpt lat="43.52608" lon="5.51571">
        <ele>241.91</ele>
        <time>2009-10-06T12:59:51Z</time>
      </trkpt>
      <trkpt lat="43.52609" lon="5.51557">
        <ele>241.91</ele>
        <time>2009-10-06T13:00:01Z</time>
      </trkpt>
      <trkpt lat="43.52612" lon="5.51541">
        <ele>245.27</ele>
        <time>2009-10-06T13:00:16Z</time>
      </trkpt>
      <trkpt lat="43.52608" lon="5.51523">
        <ele>247.2</ele>
        <time>2009-10-06T13:00:31Z</time>
      </trkpt>
      <trkpt lat="43.52607" lon="5.51508">
        <ele>244.31</ele>
        <time>2009-10-06T13:00:44Z</time>
      </trkpt>
      <trkpt lat="43.52605" lon="5.51483">
        <ele>235.18</ele>
        <time>2009-10-06T13:01:02Z</time>
      </trkpt>
      <trkpt lat="43.52604" lon="5.51465">
        <ele>244.31</ele>
        <time>2009-10-06T13:01:21Z</time>
      </trkpt>
      <trkpt lat="43.52601" lon="5.51456">
        <ele>267.86</ele>
        <time>2009-10-06T13:01:34Z</time>
      </trkpt>
      <trkpt lat="43.52598" lon="5.51443">
        <ele>265.94</ele>
        <time>2009-10-06T13:01:46Z</time>
      </trkpt>
      <trkpt lat="43.52595" lon="5.51426">
        <ele>261.62</ele>
        <time>2009-10-06T13:02:01Z</time>
      </trkpt>
      <trkpt lat="43.52589" lon="5.51414">
        <ele>277.48</ele>
        <time>2009-10-06T13:02:16Z</time>
      </trkpt>
      <trkpt lat="43.52586" lon="5.51398">
        <ele>269.79</ele>
        <time>2009-10-06T13:02:30Z</time>
      </trkpt>
      <trkpt lat="43.52581" lon="5.51373">
        <ele>241.91</ele>
        <time>2009-10-06T13:02:47Z</time>
      </trkpt>
      <trkpt lat="43.52584" lon="5.51353">
        <ele>213.55</ele>
        <time>2009-10-06T13:03:04Z</time>
      </trkpt>
      <trkpt lat="43.5258" lon="5.51343">
        <ele>214.03</ele>
        <time>2009-10-06T13:03:17Z</time>
      </trkpt>
      <trkpt lat="43.52577" lon="5.51336">
        <ele>216.91</ele>
        <time>2009-10-06T13:03:23Z</time>
      </trkpt>
      <trkpt lat="43.52567" lon="5.51307">
        <ele>238.54</ele>
        <time>2009-10-06T13:03:41Z</time>
      </trkpt>
      <trkpt lat="43.52566" lon="5.51293">
        <ele>239.99</ele>
        <time>2009-10-06T13:03:56Z</time>
      </trkpt>
      <trkpt lat="43.52564" lon="5.51279">
        <ele>231.81</ele>
        <time>2009-10-06T13:04:09Z</time>
      </trkpt>
      <trkpt lat="43.52564" lon="5.51267">
        <ele>218.84</ele>
        <time>2009-10-06T13:04:21Z</time>
      </trkpt>
      <trkpt lat="43.52564" lon="5.51256">
        <ele>218.36</ele>
        <time>2009-10-06T13:04:33Z</time>
      </trkpt>
      <trkpt lat="43.52565" lon="5.51238">
        <ele>218.84</ele>
        <time>2009-10-06T13:04:49Z</time>
      </trkpt>
      <trkpt lat="43.52567" lon="5.5122">
        <ele>206.34</ele>
        <time>2009-10-06T13:05:04Z</time>
      </trkpt>
      <trkpt lat="43.52562" lon="5.51206">
        <ele>220.28</ele>
        <time>2009-10-06T13:05:20Z</time>
      </trkpt>
      <trkpt lat="43.52559" lon="5.51178">
        <ele>202.01</ele>
        <time>2009-10-06T13:05:38Z</time>
      </trkpt>
      <trkpt lat="43.52558" lon="5.51155">
        <ele>195.28</ele>
        <time>2009-10-06T13:05:57Z</time>
      </trkpt>
      <trkpt lat="43.52553" lon="5.51136">
        <ele>195.77</ele>
        <time>2009-10-06T13:06:12Z</time>
      </trkpt>
      <trkpt lat="43.52549" lon="5.51115">
        <ele>191.44</ele>
        <time>2009-10-06T13:06:28Z</time>
      </trkpt>
      <trkpt lat="43.52546" lon="5.511">
        <ele>195.77</ele>
        <time>2009-10-06T13:06:43Z</time>
      </trkpt>
      <trkpt lat="43.52545" lon="5.51096">
        <ele>208.74</ele>
        <time>2009-10-06T13:06:59Z</time>
      </trkpt>
      <trkpt lat="43.52542" lon="5.51096">
        <ele>212.59</ele>
        <time>2009-10-06T13:07:53Z</time>
      </trkpt>
      <trkpt lat="43.52544" lon="5.51086">
        <ele>199.13</ele>
        <time>2009-10-06T13:08:07Z</time>
      </trkpt>
      <trkpt lat="43.52544" lon="5.51079">
        <ele>184.71</ele>
        <time>2009-10-06T13:08:22Z</time>
      </trkpt>
      <trkpt lat="43.52544" lon="5.51074">
        <ele>192.88</ele>
        <time>2009-10-06T13:08:49Z</time>
      </trkpt>
      <trkpt lat="43.52544" lon="5.51073">
        <ele>191.44</ele>
        <time>2009-10-06T13:09:06Z</time>
      </trkpt>
      <trkpt lat="43.52547" lon="5.51073">
        <ele>207.78</ele>
        <time>2009-10-06T13:09:33Z</time>
      </trkpt>
      <trkpt lat="43.52546" lon="5.51075">
        <ele>206.82</ele>
        <time>2009-10-06T13:09:59Z</time>
      </trkpt>
      <trkpt lat="43.52542" lon="5.51079">
        <ele>204.42</ele>
        <time>2009-10-06T13:10:25Z</time>
      </trkpt>
      <trkpt lat="43.52547" lon="5.51072">
        <ele>200.09</ele>
        <time>2009-10-06T13:10:46Z</time>
      </trkpt>
      <trkpt lat="43.52546" lon="5.51071">
        <ele>198.17</ele>
        <time>2009-10-06T13:11:04Z</time>
      </trkpt>
      <trkpt lat="43.52549" lon="5.51073">
        <ele>207.3</ele>
        <time>2009-10-06T13:11:39Z</time>
      </trkpt>
      <trkpt lat="43.52541" lon="5.51071">
        <ele>194.8</ele>
        <time>2009-10-06T13:12:01Z</time>
      </trkpt>
      <trkpt lat="43.52537" lon="5.51066">
        <ele>194.32</ele>
        <time>2009-10-06T13:12:08Z</time>
      </trkpt>
      <trkpt lat="43.52536" lon="5.51051">
        <ele>191.44</ele>
        <time>2009-10-06T13:12:22Z</time>
      </trkpt>
      <trkpt lat="43.52536" lon="5.5104">
        <ele>193.84</ele>
        <time>2009-10-06T13:12:33Z</time>
      </trkpt>
      <trkpt lat="43.52531" lon="5.5103">
        <ele>197.69</ele>
        <time>2009-10-06T13:12:51Z</time>
      </trkpt>
      <trkpt lat="43.52527" lon="5.51027">
        <ele>196.25</ele>
        <time>2009-10-06T13:13:04Z</time>
      </trkpt>
      <trkpt lat="43.52524" lon="5.51015">
        <ele>189.04</ele>
        <time>2009-10-06T13:13:20Z</time>
      </trkpt>
      <trkpt lat="43.52522" lon="5.51004">
        <ele>195.77</ele>
        <time>2009-10-06T13:13:38Z</time>
      </trkpt>
      <trkpt lat="43.52526" lon="5.5099">
        <ele>199.13</ele>
        <time>2009-10-06T13:13:59Z</time>
      </trkpt>
      <trkpt lat="43.5252" lon="5.50989">
        <ele>203.94</ele>
        <time>2009-10-06T13:14:14Z</time>
      </trkpt>
      <trkpt lat="43.52524" lon="5.50978">
        <ele>200.57</ele>
        <time>2009-10-06T13:14:31Z</time>
      </trkpt>
      <trkpt lat="43.52526" lon="5.50971">
        <ele>200.57</ele>
        <time>2009-10-06T13:14:44Z</time>
      </trkpt>
      <trkpt lat="43.52522" lon="5.50968">
        <ele>203.94</ele>
        <time>2009-10-06T13:15:00Z</time>
      </trkpt>
      <trkpt lat="43.52517" lon="5.50964">
        <ele>202.49</ele>
        <time>2009-10-06T13:15:14Z</time>
      </trkpt>
      <trkpt lat="43.52518" lon="5.50959">
        <ele>205.38</ele>
        <time>2009-10-06T13:15:26Z</time>
      </trkpt>
      <trkpt lat="43.52521" lon="5.50953">
        <ele>211.15</ele>
        <time>2009-10-06T13:15:43Z</time>
      </trkpt>
      <trkpt lat="43.52512" lon="5.50952">
        <ele>216.43</ele>
        <time>2009-10-06T13:16:01Z</time>
      </trkpt>
      <trkpt lat="43.52504" lon="5.50945">
        <ele>217.4</ele>
        <time>2009-10-06T13:16:19Z</time>
      </trkpt>
      <trkpt lat="43.52502" lon="5.50938">
        <ele>216.91</ele>
        <time>2009-10-06T13:16:35Z</time>
      </trkpt>
      <trkpt lat="43.52499" lon="5.50933">
        <ele>218.84</ele>
        <time>2009-10-06T13:16:59Z</time>
      </trkpt>
      <trkpt lat="43.52501" lon="5.50932">
        <ele>221.24</ele>
        <time>2009-10-06T13:17:16Z</time>
      </trkpt>
      <trkpt lat="43.52496" lon="5.5093">
        <ele>219.32</ele>
        <time>2009-10-06T13:17:34Z</time>
      </trkpt>
      <trkpt lat="43.5249" lon="5.50922">
        <ele>222.2</ele>
        <time>2009-10-06T13:17:49Z</time>
      </trkpt>
      <trkpt lat="43.52493" lon="5.50916">
        <ele>221.72</ele>
        <time>2009-10-06T13:18:08Z</time>
      </trkpt>
      <trkpt lat="43.52493" lon="5.50917">
        <ele>216.43</ele>
        <time>2009-10-06T13:18:42Z</time>
      </trkpt>
      <trkpt lat="43.52494" lon="5.50916">
        <ele>216.91</ele>
        <time>2009-10-06T13:19:03Z</time>
      </trkpt>
      <trkpt lat="43.52495" lon="5.50904">
        <ele>217.88</ele>
        <time>2009-10-06T13:19:32Z</time>
      </trkpt>
      <trkpt lat="43.52496" lon="5.5089">
        <ele>219.32</ele>
        <time>2009-10-06T13:19:47Z</time>
      </trkpt>
      <trkpt lat="43.52497" lon="5.50873">
        <ele>218.84</ele>
        <time>2009-10-06T13:20:05Z</time>
      </trkpt>
      <trkpt lat="43.52496" lon="5.50865">
        <ele>225.09</ele>
        <time>2009-10-06T13:20:20Z</time>
      </trkpt>
      <trkpt lat="43.52492" lon="5.50846">
        <ele>220.76</ele>
        <time>2009-10-06T13:20:35Z</time>
      </trkpt>
      <trkpt lat="43.52486" lon="5.5083">
        <ele>223.64</ele>
        <time>2009-10-06T13:20:51Z</time>
      </trkpt>
      <trkpt lat="43.52479" lon="5.50811">
        <ele>226.05</ele>
        <time>2009-10-06T13:21:09Z</time>
      </trkpt>
      <trkpt lat="43.52475" lon="5.50805">
        <ele>230.37</ele>
        <time>2009-10-06T13:21:27Z</time>
      </trkpt>
      <trkpt lat="43.52473" lon="5.50797">
        <ele>240.95</ele>
        <time>2009-10-06T13:21:48Z</time>
      </trkpt>
      <trkpt lat="43.52468" lon="5.50787">
        <ele>232.3</ele>
        <time>2009-10-06T13:22:02Z</time>
      </trkpt>
      <trkpt lat="43.52466" lon="5.50771">
        <ele>226.53</ele>
        <time>2009-10-06T13:22:20Z</time>
      </trkpt>
      <trkpt lat="43.52468" lon="5.50756">
        <ele>221.24</ele>
        <time>2009-10-06T13:22:35Z</time>
      </trkpt>
      <trkpt lat="43.52472" lon="5.50743">
        <ele>222.2</ele>
        <time>2009-10-06T13:22:45Z</time>
      </trkpt>
      <trkpt lat="43.52473" lon="5.50726">
        <ele>227.97</ele>
        <time>2009-10-06T13:23:01Z</time>
      </trkpt>
      <trkpt lat="43.5247" lon="5.50703">
        <ele>216.91</ele>
        <time>2009-10-06T13:23:17Z</time>
      </trkpt>
      <trkpt lat="43.52468" lon="5.50696">
        <ele>216.43</ele>
        <time>2009-10-06T13:23:26Z</time>
      </trkpt>
      <trkpt lat="43.52463" lon="5.50688">
        <ele>204.9</ele>
        <time>2009-10-06T13:23:40Z</time>
      </trkpt>
      <trkpt lat="43.52453" lon="5.5068">
        <ele>197.21</ele>
        <time>2009-10-06T13:23:56Z</time>
      </trkpt>
      <trkpt lat="43.52443" lon="5.50673">
        <ele>199.61</ele>
        <time>2009-10-06T13:24:08Z</time>
      </trkpt>
      <trkpt lat="43.52438" lon="5.5067">
        <ele>199.61</ele>
        <time>2009-10-06T13:24:13Z</time>
      </trkpt>
      <trkpt lat="43.52423" lon="5.50666">
        <ele>202.98</ele>
        <time>2009-10-06T13:24:31Z</time>
      </trkpt>
      <trkpt lat="43.52419" lon="5.50659">
        <ele>205.86</ele>
        <time>2009-10-06T13:24:47Z</time>
      </trkpt>
      <trkpt lat="43.52413" lon="5.50663">
        <ele>217.4</ele>
        <time>2009-10-06T13:25:03Z</time>
      </trkpt>
      <trkpt lat="43.52407" lon="5.50651">
        <ele>203.94</ele>
        <time>2009-10-06T13:25:21Z</time>
      </trkpt>
      <trkpt lat="43.52398" lon="5.5064">
        <ele>197.21</ele>
        <time>2009-10-06T13:25:38Z</time>
      </trkpt>
      <trkpt lat="43.52396" lon="5.50643">
        <ele>199.13</ele>
        <time>2009-10-06T13:25:51Z</time>
      </trkpt>
      <trkpt lat="43.52389" lon="5.50644">
        <ele>201.53</ele>
        <time>2009-10-06T13:26:05Z</time>
      </trkpt>
      <trkpt lat="43.52387" lon="5.50634">
        <ele>201.05</ele>
        <time>2009-10-06T13:26:20Z</time>
      </trkpt>
      <trkpt lat="43.52388" lon="5.50628">
        <ele>192.4</ele>
        <time>2009-10-06T13:26:52Z</time>
      </trkpt>
      <trkpt lat="43.52391" lon="5.50633">
        <ele>200.57</ele>
        <time>2009-10-06T13:27:13Z</time>
      </trkpt>
      <trkpt lat="43.52389" lon="5.50647">
        <ele>204.9</ele>
        <time>2009-10-06T13:27:26Z</time>
      </trkpt>
      <trkpt lat="43.52388" lon="5.50651">
        <ele>205.86</ele>
        <time>2009-10-06T13:27:29Z</time>
      </trkpt>
      <trkpt lat="43.52379" lon="5.50673">
        <ele>205.38</ele>
        <time>2009-10-06T13:27:47Z</time>
      </trkpt>
      <trkpt lat="43.52367" lon="5.50679">
        <ele>197.69</ele>
        <time>2009-10-06T13:28:01Z</time>
      </trkpt>
      <trkpt lat="43.52361" lon="5.50677">
        <ele>193.84</ele>
        <time>2009-10-06T13:28:07Z</time>
      </trkpt>
      <trkpt lat="43.52349" lon="5.50666">
        <ele>190.96</ele>
        <time>2009-10-06T13:28:22Z</time>
      </trkpt>
      <trkpt lat="43.52333" lon="5.50659">
        <ele>185.67</ele>
        <time>2009-10-06T13:28:37Z</time>
      </trkpt>
      <trkpt lat="43.52312" lon="5.50643">
        <ele>181.35</ele>
        <time>2009-10-06T13:28:56Z</time>
      </trkpt>
      <trkpt lat="43.5229" lon="5.50629">
        <ele>180.38</ele>
        <time>2009-10-06T13:29:16Z</time>
      </trkpt>
      <trkpt lat="43.5227" lon="5.50616">
        <ele>179.42</ele>
        <time>2009-10-06T13:29:36Z</time>
      </trkpt>
      <trkpt lat="43.52266" lon="5.50615">
        <ele>178.94</ele>
        <time>2009-10-06T13:29:40Z</time>
      </trkpt>
      <trkpt lat="43.5225" lon="5.50608">
        <ele>177.02</ele>
        <time>2009-10-06T13:29:56Z</time>
      </trkpt>
      <trkpt lat="43.52245" lon="5.50608">
        <ele>177.02</ele>
        <time>2009-10-06T13:30:01Z</time>
      </trkpt>
      <trkpt lat="43.52225" lon="5.5061">
        <ele>175.58</ele>
        <time>2009-10-06T13:30:21Z</time>
      </trkpt>
      <trkpt lat="43.5222" lon="5.50618">
        <ele>179.42</ele>
        <time>2009-10-06T13:30:28Z</time>
      </trkpt>
      <trkpt lat="43.52217" lon="5.50634">
        <ele>187.59</ele>
        <time>2009-10-06T13:30:43Z</time>
      </trkpt>
      <trkpt lat="43.52215" lon="5.5065">
        <ele>187.59</ele>
        <time>2009-10-06T13:30:56Z</time>
      </trkpt>
      <trkpt lat="43.52215" lon="5.50668">
        <ele>187.59</ele>
        <time>2009-10-06T13:31:11Z</time>
      </trkpt>
      <trkpt lat="43.52214" lon="5.50683">
        <ele>184.71</ele>
        <time>2009-10-06T13:31:22Z</time>
      </trkpt>
      <trkpt lat="43.5222" lon="5.50715">
        <ele>186.15</ele>
        <time>2009-10-06T13:31:41Z</time>
      </trkpt>
      <trkpt lat="43.52229" lon="5.50749">
        <ele>182.31</ele>
        <time>2009-10-06T13:32:03Z</time>
      </trkpt>
      <trkpt lat="43.52236" lon="5.50772">
        <ele>179.42</ele>
        <time>2009-10-06T13:32:21Z</time>
      </trkpt>
      <trkpt lat="43.52242" lon="5.50787">
        <ele>183.27</ele>
        <time>2009-10-06T13:32:37Z</time>
      </trkpt>
      <trkpt lat="43.52243" lon="5.50789">
        <ele>184.71</ele>
        <time>2009-10-06T13:32:39Z</time>
      </trkpt>
      <trkpt lat="43.52241" lon="5.50791">
        <ele>184.71</ele>
        <time>2009-10-06T13:32:42Z</time>
      </trkpt>
      <trkpt lat="43.52242" lon="5.50811">
        <ele>192.88</ele>
        <time>2009-10-06T13:32:58Z</time>
      </trkpt>
      <trkpt lat="43.52248" lon="5.50837">
        <ele>195.77</ele>
        <time>2009-10-06T13:33:19Z</time>
      </trkpt>
      <trkpt lat="43.52254" lon="5.50867">
        <ele>191.44</ele>
        <time>2009-10-06T13:33:37Z</time>
      </trkpt>
      <trkpt lat="43.52253" lon="5.5088">
        <ele>190</ele>
        <time>2009-10-06T13:33:45Z</time>
      </trkpt>
      <trkpt lat="43.52248" lon="5.50889">
        <ele>185.67</ele>
        <time>2009-10-06T13:33:52Z</time>
      </trkpt>
      <trkpt lat="43.5225" lon="5.50908">
        <ele>182.79</ele>
        <time>2009-10-06T13:34:07Z</time>
      </trkpt>
      <trkpt lat="43.52247" lon="5.50913">
        <ele>183.27</ele>
        <time>2009-10-06T13:34:12Z</time>
      </trkpt>
      <trkpt lat="43.52229" lon="5.50924">
        <ele>181.35</ele>
        <time>2009-10-06T13:34:31Z</time>
      </trkpt>
      <trkpt lat="43.52218" lon="5.50926">
        <ele>182.31</ele>
        <time>2009-10-06T13:34:44Z</time>
      </trkpt>
      <trkpt lat="43.52204" lon="5.50927">
        <ele>177.98</ele>
        <time>2009-10-06T13:34:58Z</time>
      </trkpt>
      <trkpt lat="43.52188" lon="5.50926">
        <ele>174.14</ele>
        <time>2009-10-06T13:35:12Z</time>
      </trkpt>
      <trkpt lat="43.52184" lon="5.50928">
        <ele>180.38</ele>
        <time>2009-10-06T13:35:25Z</time>
      </trkpt>
      <trkpt lat="43.5218" lon="5.50922">
        <ele>170.29</ele>
        <time>2009-10-06T13:35:49Z</time>
      </trkpt>
      <trkpt lat="43.52182" lon="5.50928">
        <ele>178.94</ele>
        <time>2009-10-06T13:36:10Z</time>
      </trkpt>
      <trkpt lat="43.52182" lon="5.50939">
        <ele>193.36</ele>
        <time>2009-10-06T13:36:42Z</time>
      </trkpt>
      <trkpt lat="43.52179" lon="5.50951">
        <ele>195.77</ele>
        <time>2009-10-06T13:37:10Z</time>
      </trkpt>
      <trkpt lat="43.52178" lon="5.50932">
        <ele>174.14</ele>
        <time>2009-10-06T13:37:43Z</time>
      </trkpt>
      <trkpt lat="43.52181" lon="5.50925">
        <ele>176.54</ele>
        <time>2009-10-06T13:38:18Z</time>
      </trkpt>
      <trkpt lat="43.52183" lon="5.50923">
        <ele>184.23</ele>
        <time>2009-10-06T13:38:26Z</time>
      </trkpt>
    </trkseg>
  </trk>
</gpx>